M I D A S
Marine Information and Data Acquisition System
Tripno 1258 of the Zeeleeuw from 2007-02-16 07:38:04 to 2007-02-16 14:00:57
Back to CruiseResearch ActivitiesStationsMapUnderway DataData graphs

EquipmentUnitsComment
TimeDGPSUTC
LatitudeDGPSDM.mWGS84
LongitudeDGPSDM.mWGS84
TemperatureSBE03/SBE38deg celciusITS90
ConductivitySBE21S/mITS90
SalinitySBE21 Practical Salinity Units
ChlorophylAChelsea fluorimeterg/lCalibrated in Aceton
Missing or incorrect values are displayed as -999
Sea surface data collected by the RV Zeeleeuw from 2007-02-16 07:38:14 to 2007-02-16 14:07:54
                                                                                    Next 1000 lines
Time Latitude Longitude Temperature Conductivity Salinity ChlorophylA
2007-02-16 07:38:24 51°13.598 2°56.094 15.6854 0.068074 0.3697 -2.871232
2007-02-16 07:38:29 51°13.597 2°56.094 15.6835 0.067971 0.369123 -2.871232
2007-02-16 07:38:34 51°13.597 2°56.094 15.6853 0.068074 0.3697 -2.871232
2007-02-16 07:38:39 51°13.598 2°56.094 15.6833 0.068074 0.3697 -2.871232
2007-02-16 07:38:45 51°13.598 2°56.094 15.6834 0.068074 0.3697 -2.871232
2007-02-16 07:38:50 51°13.598 2°56.094 15.68 0.068074 0.3697 -2.871232
2007-02-16 07:38:54 51°13.598 2°56.094 15.6806 0.068074 0.3697 -2.871232
2007-02-16 07:39:00 51°13.598 2°56.094 15.6821 0.068074 0.3697 -2.871232
2007-02-16 07:39:04 51°13.598 2°56.094 15.682 0.067971 0.369116 -2.871232
2007-02-16 07:39:09 51°13.598 2°56.094 15.6771 0.067971 0.369123 -2.871232
2007-02-16 07:39:14 51°13.598 2°56.094 15.6779 0.068074 0.369693 -2.871232
2007-02-16 07:39:20 51°13.598 2°56.094 15.6775 0.068074 0.369693 -2.871232
2007-02-16 07:39:24 51°13.598 2°56.094 15.6772 0.068074 0.369693 -2.871232
2007-02-16 07:39:29 51°13.598 2°56.094 15.6792 0.067971 0.369123 -2.871232
2007-02-16 07:39:35 51°13.597 2°56.093 15.6789 0.068074 0.3697 -2.871232
2007-02-16 07:39:40 51°13.597 2°56.093 15.683 0.067971 0.369123 -2.871232
2007-02-16 07:39:44 51°13.597 2°56.093 15.6821 0.068074 0.369693 -2.871232
2007-02-16 07:39:49 51°13.597 2°56.093 15.6857 0.068074 0.369693 -2.871232
2007-02-16 07:39:55 51°13.597 2°56.094 15.683 0.068074 0.369693 -2.871232
2007-02-16 07:40:00 51°13.597 2°56.093 15.6833 0.067971 0.369116 -2.871232
2007-02-16 07:40:04 51°13.597 2°56.094 15.6819 0.068177 0.37027 -2.871232
2007-02-16 07:40:10 51°13.597 2°56.093 15.6781 0.068074 0.369693 -2.871232
2007-02-16 07:40:14 51°13.597 2°56.093 15.6698 0.068074 0.369693 -2.871232
2007-02-16 07:40:20 51°13.598 2°56.093 15.6714 0.067971 0.369116 -2.871232
2007-02-16 07:40:24 51°13.598 2°56.094 15.6753 0.067971 0.369116 -2.871232
2007-02-16 07:40:29 51°13.598 2°56.094 15.6726 0.068074 0.369693 -2.871232
2007-02-16 07:40:34 51°13.598 2°56.094 15.6766 0.067971 0.369116 -2.871232
2007-02-16 07:40:39 51°13.598 2°56.094 15.6777 0.067971 0.369116 -2.871232
2007-02-16 07:40:44 51°13.598 2°56.094 15.6798 0.067971 0.369116 -2.871232
2007-02-16 07:40:49 51°13.598 2°56.094 15.6873 0.068074 0.3697 -2.871232
2007-02-16 07:40:55 51°13.598 2°56.094 15.6873 0.068074 0.3697 -2.871232
2007-02-16 07:41:00 51°13.598 2°56.094 15.6837 0.068074 0.369693 -2.871232
2007-02-16 07:41:04 51°13.598 2°56.094 15.6594 0.067971 0.369116 -2.871232
2007-02-16 07:41:10 51°13.598 2°56.094 15.6118 0.067971 0.369116 -2.871232
2007-02-16 07:41:15 51°13.598 2°56.093 15.61 0.068074 0.3697 -2.871232
2007-02-16 07:41:20 51°13.598 2°56.093 15.6044 0.068074 0.3697 -2.871232
2007-02-16 07:41:24 51°13.598 2°56.091 15.5793 0.068074 0.3697 -2.871232
2007-02-16 07:41:29 51°13.599 2°56.09 15.5325 0.067971 0.369116 -2.871232
2007-02-16 07:41:34 51°13.599 2°56.088 15.5808 0.067971 0.369116 -2.871232
2007-02-16 07:41:40 51°13.6 2°56.085 15.559 0.068074 0.369693 -2.871232
2007-02-16 07:41:44 51°13.601 2°56.082 15.5771 0.068074 0.369686 -2.871232
2007-02-16 07:41:50 51°13.603 2°56.078 15.5481 0.068074 0.369686 -2.871232
2007-02-16 07:41:55 51°13.604 2°56.073 15.5571 0.068074 0.369686 -2.871232
2007-02-16 07:42:00 51°13.605 2°56.068 15.6297 0.067971 0.369102 -2.871232
2007-02-16 07:42:06 51°13.607 2°56.062 15.663 0.068074 0.369678 -2.871232
2007-02-16 07:42:12 51°13.608 2°56.055 15.6495 0.068074 0.369678 -2.871232
2007-02-16 07:42:17 51°13.609 2°56.049 15.6698 0.068074 0.369678 -2.871232
2007-02-16 07:42:23 51°13.61 2°56.042 15.6627 0.067971 0.369102 -2.871232
2007-02-16 07:42:28 51°13.611 2°56.037 15.6634 0.067971 0.369102 -2.871232
2007-02-16 07:42:33 51°13.613 2°56.031 15.6629 0.067971 0.369109 -2.871232
2007-02-16 07:42:38 51°13.614 2°56.025 15.6627 0.067971 0.369109 -2.871232
2007-02-16 07:42:43 51°13.616 2°56.019 15.6621 0.068074 0.369693 -2.871232
2007-02-16 07:42:48 51°13.617 2°56.013 15.6594 0.067971 0.369123 -2.871232
2007-02-16 07:42:53 51°13.619 2°56.007 15.6568 0.068074 0.3697 -2.871232
2007-02-16 07:42:58 51°13.621 2°56.001 15.6362 0.068074 0.3697 -2.871232
2007-02-16 07:43:03 51°13.623 2°55.995 15.6439 0.067971 0.369116 -2.871232
2007-02-16 07:43:08 51°13.625 2°55.988 15.6443 0.067971 0.369116 -2.871232
2007-02-16 07:43:13 51°13.627 2°55.982 15.6754 0.068074 0.369686 -2.871232
2007-02-16 07:43:18 51°13.629 2°55.975 12.2119 0.068074 0.370242 -2.871232
2007-02-16 07:43:23 51°13.63 2°55.969 11.3485 0.084026 0.45865 -2.871232
2007-02-16 07:43:28 51°13.632 2°55.963 9.7482 0.084026 0.45865 -2.871232
2007-02-16 07:43:33 51°13.635 2°55.957 9.2411 0.097405 0.534839 -2.871232
2007-02-16 07:43:38 51°13.637 2°55.95 8.9856 1.769367 11.662921 -2.871232
2007-02-16 07:43:43 51°13.639 2°55.944 8.8026 1.743993 11.846115 -2.871232
2007-02-16 07:43:47 51°13.641 2°55.939 8.6411 2.340399 17.266423 -2.871232
2007-02-16 07:43:53 51°13.643 2°55.931 8.5739 2.789255 21.845885 -2.871232
2007-02-16 07:43:58 51°13.645 2°55.925 8.5637 2.789255 21.845885 -2.871232
2007-02-16 07:44:03 51°13.648 2°55.918 8.4874 2.920293 23.794465 -2.871232
2007-02-16 07:44:08 51°13.65 2°55.912 8.4294 2.898067 24.31548 -2.871232
2007-02-16 07:44:13 51°13.652 2°55.905 8.3385 2.84926 24.357356 -2.871232
2007-02-16 07:44:18 51°13.654 2°55.898 8.2868 2.831064 24.463379 -2.871232
2007-02-16 07:44:23 51°13.656 2°55.891 8.2822 2.84875 24.825246 -2.871232
2007-02-16 07:44:28 51°13.658 2°55.884 8.2658 2.84875 24.825246 -2.871232
2007-02-16 07:44:33 51°13.66 2°55.877 8.2164 2.840892 24.883265 -2.871232
2007-02-16 07:44:38 51°13.662 2°55.87 8.2003 2.83169 24.900481 -2.871232
2007-02-16 07:44:43 51°13.664 2°55.863 8.169 2.81649 24.827161 -2.871232
2007-02-16 07:44:48 51°13.666 2°55.856 8.1386 2.805634 24.798424 -2.871232
2007-02-16 07:44:53 51°13.668 2°55.849 8.1263 2.802636 24.822309 -2.871232
2007-02-16 07:44:58 51°13.67 2°55.842 8.1223 2.802636 24.822309 -2.871232
2007-02-16 07:45:03 51°13.671 2°55.835 8.1111 2.804084 24.877735 -2.871232
2007-02-16 07:45:08 51°13.672 2°55.829 8.1284 2.782164 24.702822 -2.871232
2007-02-16 07:45:13 51°13.674 2°55.822 8.1122 2.823112 25.139219 -2.871232
2007-02-16 07:45:17 51°13.675 2°55.817 8.0659 2.832316 25.26281 -2.871232
2007-02-16 07:45:22 51°13.676 2°55.811 8.0393 2.837693 25.34365 -2.871232
2007-02-16 07:45:27 51°13.677 2°55.805 8.0376 2.837693 25.34365 -2.871232
2007-02-16 07:45:32 51°13.678 2°55.799 8.0249 2.852171 25.50195 -2.871232
2007-02-16 07:45:37 51°13.679 2°55.793 8.0249 2.867994 25.677281 -2.871232
2007-02-16 07:45:42 51°13.68 2°55.787 8.0116 2.880715 25.814669 -2.871232
2007-02-16 07:45:46 51°13.68 2°55.783 7.9978 2.87875 25.812015 -2.871232
2007-02-16 07:45:52 51°13.681 2°55.776 8.0143 2.872235 25.767166 -2.871232
2007-02-16 07:45:56 51°13.682 2°55.772 7.9787 2.872235 25.767166 -2.871232
2007-02-16 07:46:01 51°13.682 2°55.766 7.9832 2.85362 25.600555 -2.871232
2007-02-16 07:46:06 51°13.682 2°55.761 7.9713 2.83604 25.443416 -2.871232
2007-02-16 07:46:11 51°13.683 2°55.756 7.943 2.823838 25.337295 -2.871232
2007-02-16 07:46:16 51°13.683 2°55.752 7.9294 2.811326 25.223953 -2.871232
2007-02-16 07:46:20 51°13.683 2°55.748 7.9356 2.811533 25.23627 -2.871232
2007-02-16 07:46:25 51°13.683 2°55.744 7.9249 2.811533 25.23627 -2.871232
2007-02-16 07:46:30 51°13.683 2°55.74 7.9203 2.805122 25.18522 -2.871232
2007-02-16 07:46:35 51°13.683 2°55.737 7.9182 2.790543 25.049982 -2.871232
2007-02-16 07:46:40 51°13.683 2°55.734 7.9269 2.779065 24.950147 -2.871232
2007-02-16 07:46:45 51°13.683 2°55.732 7.9062 2.773379 24.906143 -2.871232
2007-02-16 07:46:49 51°13.683 2°55.731 7.8941 2.771001 24.888054 -2.871232
2007-02-16 07:46:54 51°13.683 2°55.73 7.9009 2.771001 24.888054 -2.871232
2007-02-16 07:47:00 51°13.683 2°55.73 7.8828 2.771828 24.906396 -2.871232
2007-02-16 07:47:05 51°13.685 2°55.731 7.8777 2.773069 24.927489 -2.871232
2007-02-16 07:47:09 51°13.686 2°55.733 7.8597 2.771311 24.914168 -2.871232
2007-02-16 07:47:14 51°13.688 2°55.735 7.8662 2.764591 24.855123 -2.871232
2007-02-16 07:47:20 51°13.691 2°55.738 7.8544 2.760868 24.827089 -2.871232
2007-02-16 07:47:25 51°13.695 2°55.74 7.8557 2.760868 24.827089 -2.871232
2007-02-16 07:47:30 51°13.699 2°55.742 7.8863 2.758387 24.809293 -2.871232
2007-02-16 07:47:34 51°13.703 2°55.743 7.8529 2.754665 24.783264 -2.871232
2007-02-16 07:47:39 51°13.708 2°55.743 7.8566 2.743809 24.685234 -2.871232
2007-02-16 07:47:44 51°13.713 2°55.742 7.8464 2.738226 24.636022 -2.871232
2007-02-16 07:47:50 51°13.719 2°55.74 7.855 2.724166 24.504237 -2.871232
2007-02-16 07:47:54 51°13.722 2°55.738 7.8772 2.724166 24.504237 -2.871232
2007-02-16 07:47:59 51°13.727 2°55.735 7.8503 2.720857 24.474175 -2.871232
2007-02-16 07:48:04 51°13.731 2°55.731 7.8457 2.715998 24.428101 -2.871232
2007-02-16 07:48:09 51°13.736 2°55.727 7.8336 2.714241 24.414714 -2.871232
2007-02-16 07:48:15 51°13.742 2°55.721 7.7923 2.71972 24.472276 -2.871232
2007-02-16 07:48:20 51°13.748 2°55.716 7.7685 2.727681 24.551758 -2.871232
2007-02-16 07:48:24 51°13.753 2°55.711 7.7216 2.727681 24.551758 -2.871232
2007-02-16 07:48:30 51°13.76 2°55.704 7.7052 2.730472 24.576716 -2.871232
2007-02-16 07:48:35 51°13.767 2°55.697 7.6888 2.7252 24.529199 -2.871232
2007-02-16 07:48:40 51°13.774 2°55.69 7.6833 2.703593 24.323333 -2.871232
2007-02-16 07:48:44 51°13.779 2°55.684 7.6699 2.652629 23.833357 -2.871232
2007-02-16 07:48:49 51°13.787 2°55.676 7.7172 2.581619 23.150385 -2.871232
2007-02-16 07:48:55 51°13.796 2°55.667 7.6678 2.581619 23.150385 -2.871232
2007-02-16 07:49:00 51°13.804 2°55.66 7.7013 2.487164 22.247867 -2.871232
2007-02-16 07:49:04 51°13.811 2°55.654 7.6906 2.409877 21.51151 -2.871232
2007-02-16 07:49:09 51°13.819 2°55.647 7.6873 2.364627 21.080253 -2.871232
2007-02-16 07:49:14 51°13.828 2°55.64 7.7005 2.33973 20.848688 -2.871232
2007-02-16 07:49:20 51°13.839 2°55.632 7.7069 2.335289 20.805912 -2.871232
2007-02-16 07:49:24 51°13.846 2°55.626 7.7117 2.335289 20.805912 -2.871232
2007-02-16 07:49:29 51°13.855 2°55.619 7.727 2.334979 20.806314 -2.871232
2007-02-16 07:49:34 51°13.864 2°55.612 7.7603 2.34004 20.853429 -2.871232
2007-02-16 07:49:40 51°13.876 2°55.604 7.7498 2.340557 20.862477 -2.871232
2007-02-16 07:49:44 51°13.883 2°55.598 7.7496 2.356362 21.016265 -2.871232
2007-02-16 07:49:50 51°13.895 2°55.59 7.7632 2.381776 21.262395 -2.871232
2007-02-16 07:49:54 51°13.902 2°55.584 7.7737 2.381776 21.262395 -2.871232
2007-02-16 07:49:59 51°13.912 2°55.577 7.7867 2.406364 21.497765 -2.871232
2007-02-16 07:50:05 51°13.924 2°55.568 7.7847 2.450482 21.921237 -2.871232
2007-02-16 07:50:10 51°13.933 2°55.561 7.793 2.490367 22.30557 -2.871232
2007-02-16 07:50:14 51°13.941 2°55.555 7.7973 2.539867 22.78822 -2.871232
2007-02-16 07:50:19 51°13.951 2°55.548 7.7999 2.577796 23.1558 -2.871232
2007-02-16 07:50:24 51°13.96 2°55.541 7.8052 2.577796 23.1558 -2.871232
2007-02-16 07:50:30 51°13.972 2°55.532 7.7964 2.620793 23.573963 -2.871232
2007-02-16 07:50:34 51°13.98 2°55.527 7.7897 2.662139 23.977116 -2.871232
2007-02-16 07:50:40 51°13.992 2°55.519 7.7887 2.698734 24.334438 -2.871232
2007-02-16 07:50:44 51°14 2°55.513 7.7869 2.729853 24.638537 -2.871232
2007-02-16 07:50:49 51°14.01 2°55.506 7.7787 2.753219 24.867961 -2.871232
2007-02-16 07:50:55 51°14.022 2°55.497 7.7891 2.753219 24.867961 -2.871232
2007-02-16 07:51:00 51°14.032 2°55.49 7.7916 2.765006 24.982417 -2.871232
2007-02-16 07:51:04 51°14.04 2°55.485 7.7833 2.759939 24.934773 -2.871232
2007-02-16 07:51:10 51°14.052 2°55.476 7.7758 2.772243 25.059208 -2.871232
2007-02-16 07:51:15 51°14.062 2°55.469 7.7624 2.767177 25.010174 -2.871232
2007-02-16 07:51:21 51°14.074 2°55.461 7.7724 2.765833 25.000227 -2.871232
2007-02-16 07:51:25 51°14.082 2°55.455 7.7497 2.765833 25.000227 -2.871232
2007-02-16 07:51:31 51°14.094 2°55.446 7.7385 2.763662 24.98068 -2.871232
2007-02-16 07:51:36 51°14.104 2°55.438 7.7403 2.763869 24.983422 -2.871232
2007-02-16 07:51:41 51°14.114 2°55.431 7.7259 2.759009 24.938498 -2.871232
2007-02-16 07:51:46 51°14.124 2°55.423 7.7222 2.755597 24.909337 -2.871232
2007-02-16 07:51:52 51°14.135 2°55.413 7.7257 2.74195 24.77565 -2.871232
2007-02-16 07:51:57 51°14.145 2°55.405 7.7069 2.74195 24.77565 -2.871232
2007-02-16 07:52:03 51°14.157 2°55.395 7.7048 2.717654 24.542305 -2.871232
2007-02-16 07:52:08 51°14.166 2°55.386 7.6942 2.691395 24.288276 -2.871232
2007-02-16 07:52:13 51°14.175 2°55.376 7.6967 2.664931 24.031747 -2.871232
2007-02-16 07:52:18 51°14.184 2°55.366 7.6999 2.64343 23.827202 -2.871232
2007-02-16 07:52:23 51°14.193 2°55.356 7.7033 2.636401 23.761491 -2.871232
2007-02-16 07:52:28 51°14.202 2°55.345 7.6862 2.636401 23.761491 -2.871232
2007-02-16 07:52:33 51°14.211 2°55.335 7.6852 2.634541 23.750232 -2.871232
2007-02-16 07:52:38 51°14.219 2°55.323 7.6904 2.642293 23.831631 -2.871232
2007-02-16 07:52:43 51°14.228 2°55.312 7.6731 2.651286 23.926709 -2.871232
2007-02-16 07:52:48 51°14.236 2°55.301 7.6783 2.659659 24.011102 -2.871232
2007-02-16 07:52:53 51°14.244 2°55.289 7.6762 2.663898 24.056471 -2.871232
2007-02-16 07:52:58 51°14.252 2°55.276 7.6681 2.663898 24.056471 -2.871232
2007-02-16 07:53:03 51°14.259 2°55.263 7.6631 2.664311 24.064543 -2.871232
2007-02-16 07:53:08 51°14.267 2°55.251 7.6533 2.657178 23.996369 -2.871232
2007-02-16 07:53:13 51°14.274 2°55.238 7.6573 2.648909 23.916921 -2.871232
2007-02-16 07:53:18 51°14.281 2°55.225 7.6661 2.63268 23.761806 -2.871232
2007-02-16 07:53:23 51°14.289 2°55.212 7.657 2.618209 23.622219 -2.871232
2007-02-16 07:53:28 51°14.296 2°55.199 7.659 2.618209 23.622219 -2.871232
2007-02-16 07:53:33 51°14.304 2°55.186 7.6609 2.610664 23.549376 -2.871232
2007-02-16 07:53:37 51°14.309 2°55.175 7.6357 2.603842 23.483072 -2.871232
2007-02-16 07:53:43 51°14.318 2°55.159 7.6481 2.595781 23.407075 -2.871232
2007-02-16 07:53:47 51°14.324 2°55.149 7.6337 2.587822 23.330184 -2.871232
2007-02-16 07:53:52 51°14.331 2°55.135 7.6226 2.585858 23.312021 -2.871232
2007-02-16 07:53:57 51°14.338 2°55.121 7.6285 2.585858 23.312021 -2.871232
2007-02-16 07:54:02 51°14.346 2°55.106 7.6148 2.584515 23.298718 -2.871232
2007-02-16 07:54:07 51°14.354 2°55.088 7.618 2.580484 23.261371 -2.871232
2007-02-16 07:54:12 51°14.363 2°55.07 7.6259 2.585858 23.319717 -2.871232
2007-02-16 07:54:16 51°14.37 2°55.054 7.6168 2.59299 23.393587 -2.871232
2007-02-16 07:54:21 51°14.38 2°55.033 7.6224 2.603429 23.504179 -2.871232
2007-02-16 07:54:26 51°14.389 2°55.011 7.6255 2.603429 23.504179 -2.871232
2007-02-16 07:54:31 51°14.399 2°54.989 7.6339 2.600949 23.484103 -2.871232
2007-02-16 07:54:36 51°14.409 2°54.966 7.638 2.609218 23.570678 -2.871232
2007-02-16 07:54:41 51°14.418 2°54.942 7.6449 2.622034 23.697923 -2.871232
2007-02-16 07:54:46 51°14.427 2°54.916 7.6622 2.634955 23.826935 -2.871232
2007-02-16 07:54:50 51°14.433 2°54.895 7.6789 2.648186 23.959783 -2.871232
2007-02-16 07:54:55 51°14.44 2°54.867 7.7 2.648186 23.959783 -2.871232
2007-02-16 07:55:00 51°14.447 2°54.84 7.7278 2.66059 24.081189 -2.871232
2007-02-16 07:55:05 51°14.452 2°54.811 7.733 2.696048 24.429589 -2.871232
2007-02-16 07:55:10 51°14.457 2°54.782 7.7496 2.762112 25.08692 -2.871232
2007-02-16 07:55:14 51°14.46 2°54.758 7.7554 2.848351 25.944356 -2.871232
2007-02-16 07:55:19 51°14.463 2°54.729 7.7716 2.925401 26.706487 -2.871232
2007-02-16 07:55:24 51°14.465 2°54.698 7.7756 2.925401 26.706487 -2.871232
2007-02-16 07:55:29 51°14.466 2°54.668 7.8 3.008877 27.532604 -2.871232
2007-02-16 07:55:35 51°14.467 2°54.632 7.8047 3.080884 28.245618 -2.871232
2007-02-16 07:55:40 51°14.466 2°54.601 7.8259 3.140691 28.837188 -2.871232
2007-02-16 07:55:44 51°14.466 2°54.577 7.8335 3.184051 29.266548 -2.871232
2007-02-16 07:55:49 51°14.463 2°54.547 7.8298 3.202783 29.443341 -2.871232
2007-02-16 07:55:54 51°14.46 2°54.517 7.8457 3.202783 29.443341 -2.871232
2007-02-16 07:56:00 51°14.454 2°54.482 7.8299 3.237559 29.783449 -2.871232
2007-02-16 07:56:04 51°14.449 2°54.459 7.8339 3.257328 29.970865 -2.871232
2007-02-16 07:56:10 51°14.439 2°54.425 7.8403 3.276063 30.148572 -2.871232
2007-02-16 07:56:14 51°14.433 2°54.403 7.831 3.289519 30.274962 -2.871232
2007-02-16 07:56:19 51°14.424 2°54.376 7.8274 3.30867 30.462756 -2.871232
2007-02-16 07:56:25 51°14.413 2°54.345 7.8254 3.30867 30.462756 -2.871232
2007-02-16 07:56:30 51°14.403 2°54.318 7.8211 3.320575 30.580034 -2.871232
2007-02-16 07:56:34 51°14.396 2°54.297 7.822 3.328856 30.663724 -2.871232
2007-02-16 07:56:39 51°14.387 2°54.271 7.8238 3.333204 30.706431 -2.871232
2007-02-16 07:56:45 51°14.375 2°54.24 7.8258 3.335896 30.734757 -2.871232
2007-02-16 07:56:50 51°14.366 2°54.213 7.8318 3.333929 30.714672 -2.871232
2007-02-16 07:56:54 51°14.358 2°54.192 7.8392 3.333929 30.714672 -2.871232
2007-02-16 07:57:00 51°14.347 2°54.161 7.8369 3.283205 30.198171 -2.871232
2007-02-16 07:57:04 51°14.339 2°54.14 7.8361 3.343039 30.811938 -2.871232
2007-02-16 07:57:09 51°14.329 2°54.113 7.8351 3.348423 30.866943 -2.871232
2007-02-16 07:57:15 51°14.318 2°54.082 7.837 3.351425 30.896777 -2.871232
2007-02-16 07:57:20 51°14.308 2°54.055 7.8439 3.360536 30.987354 -2.871232
2007-02-16 07:57:24 51°14.3 2°54.034 7.8359 3.360536 30.987354 -2.871232
2007-02-16 07:57:30 51°14.289 2°54.002 7.8409 3.376376 31.146788 -2.871232
2007-02-16 07:57:35 51°14.279 2°53.975 7.8402 3.38321 31.214988 -2.871232
2007-02-16 07:57:40 51°14.269 2°53.948 7.8406 3.387247 31.254594 -2.871232
2007-02-16 07:57:44 51°14.262 2°53.927 7.8415 3.393253 31.315197 -2.871232
2007-02-16 07:57:49 51°14.252 2°53.9 7.8477 3.393149 31.31242 -2.871232
2007-02-16 07:57:54 51°14.242 2°53.873 7.8416 3.393149 31.31242 -2.871232
2007-02-16 07:58:00 51°14.23 2°53.841 7.8484 3.391389 31.293546 -2.871232
2007-02-16 07:58:04 51°14.223 2°53.82 7.8448 3.386005 31.237596 -2.871232
2007-02-16 07:58:09 51°14.213 2°53.793 7.8593 3.4005 31.385953 -2.871232
2007-02-16 07:58:14 51°14.203 2°53.767 7.8504 3.406195 31.444264 -2.871232
2007-02-16 07:58:20 51°14.191 2°53.734 7.8419 3.408369 31.465669 -2.871232
2007-02-16 07:58:25 51°14.181 2°53.707 7.8401 3.408369 31.465669 -2.871232
2007-02-16 07:58:30 51°14.172 2°53.68 7.8396 3.411269 31.494499 -2.871232
2007-02-16 07:58:34 51°14.164 2°53.659 7.8387 3.410958 31.491318 -2.871232
2007-02-16 07:58:40 51°14.153 2°53.626 7.8414 3.413857 31.518421 -2.871232
2007-02-16 07:58:45 51°14.143 2°53.599 7.8302 3.41013 31.478517 -2.871232
2007-02-16 07:58:49 51°14.136 2°53.577 7.8358 3.407852 31.456916 -2.871232
2007-02-16 07:58:54 51°14.126 2°53.55 7.8342 3.407852 31.456916 -2.871232
2007-02-16 07:59:00 51°14.115 2°53.517 7.83 3.414478 31.527378 -2.871232
2007-02-16 07:59:05 51°14.105 2°53.489 7.8274 3.412925 31.514062 -2.871232
2007-02-16 07:59:09 51°14.098 2°53.467 7.8334 3.412718 31.51194 -2.871232
2007-02-16 07:59:14 51°14.088 2°53.44 7.8211 3.406506 31.44917 -2.871232
2007-02-16 07:59:20 51°14.077 2°53.407 7.8223 3.409819 31.486561 -2.871232
2007-02-16 07:59:24 51°14.069 2°53.385 7.8203 3.409819 31.486561 -2.871232
2007-02-16 07:59:30 51°14.058 2°53.352 7.8211 3.406506 31.454347 -2.871232
2007-02-16 07:59:35 51°14.048 2°53.325 7.8191 3.402882 31.419816 -2.871232
2007-02-16 07:59:40 51°14.039 2°53.297 7.8184 3.40195 31.411995 -2.871232
2007-02-16 07:59:44 51°14.031 2°53.275 7.8228 3.4034 31.42943 -2.871232
2007-02-16 07:59:50 51°14.02 2°53.242 7.8199 3.405678 31.455355 -2.871232
2007-02-16 07:59:55 51°14.01 2°53.214 7.8244 3.405678 31.455355 -2.871232
2007-02-16 08:00:00 51°14 2°53.187 7.8146 3.402778 31.42824 -2.871232
2007-02-16 08:00:04 51°13.992 2°53.165 7.8138 3.404953 31.450519 -2.871232
2007-02-16 08:00:09 51°13.983 2°53.137 7.8109 3.399672 31.398142 -2.871232
2007-02-16 08:00:15 51°13.971 2°53.104 7.8116 3.402571 31.429569 -2.871232
2007-02-16 08:00:20 51°13.962 2°53.076 7.8116 3.401847 31.422143 -2.871232
2007-02-16 08:00:24 51°13.954 2°53.055 7.8115 3.401847 31.422143 -2.871232
2007-02-16 08:00:29 51°13.945 2°53.027 7.8099 3.410855 31.515325 -2.871232
2007-02-16 08:00:34 51°13.935 2°52.999 7.8091 3.410441 31.513675 -2.871232
2007-02-16 08:00:40 51°13.924 2°52.966 7.8125 3.40837 31.495041 -2.871232
2007-02-16 08:00:44 51°13.916 2°52.944 7.8098 3.416032 31.576201 -2.871232
2007-02-16 08:00:49 51°13.907 2°52.916 7.8116 3.4151 31.565778 -2.871232
2007-02-16 08:00:55 51°13.896 2°52.882 7.8106 3.4151 31.565778 -2.871232
2007-02-16 08:01:00 51°13.886 2°52.855 7.8102 3.412512 31.5401 -2.871232
2007-02-16 08:01:04 51°13.879 2°52.833 7.8096 3.418103 31.598308 -2.871232
2007-02-16 08:01:09 51°13.869 2°52.805 7.8147 3.419553 31.613177 -2.871232
2007-02-16 08:01:14 51°13.86 2°52.777 7.8123 3.415929 31.576007 -2.871232
2007-02-16 08:01:20 51°13.848 2°52.744 7.8139 3.422555 31.644849 -2.871232
2007-02-16 08:01:25 51°13.838 2°52.716 7.8079 3.422555 31.644849 -2.871232
2007-02-16 08:01:30 51°13.829 2°52.689 7.8106 3.425144 31.671408 -2.871232
2007-02-16 08:01:34 51°13.821 2°52.667 7.8106 3.413961 31.556698 -2.871232
2007-02-16 08:01:40 51°13.81 2°52.633 7.8104 3.427111 31.691595 -2.871232
2007-02-16 08:01:44 51°13.802 2°52.611 7.8111 3.429286 31.713037 -2.871232
2007-02-16 08:01:49 51°13.793 2°52.583 7.8109 3.426387 31.683287 -2.871232
2007-02-16 08:01:54 51°13.783 2°52.555 7.8108 3.426387 31.683287 -2.871232
2007-02-16 08:02:00 51°13.771 2°52.522 7.8054 3.430632 31.728594 -2.871232
2007-02-16 08:02:04 51°13.764 2°52.5 7.8102 3.426594 31.687152 -2.871232
2007-02-16 08:02:09 51°13.754 2°52.473 7.8113 3.425972 31.679907 -2.871232
2007-02-16 08:02:15 51°13.742 2°52.439 7.8066 3.426904 31.69034 -2.871232
2007-02-16 08:02:20 51°13.732 2°52.412 7.8058 3.43115 31.733036 -2.871232
2007-02-16 08:02:24 51°13.725 2°52.39 7.812 3.43115 31.733036 -2.871232
2007-02-16 08:02:29 51°13.715 2°52.362 7.806 3.432082 31.744344 -2.871232
2007-02-16 08:02:35 51°13.704 2°52.329 7.7996 3.42618 31.684642 -2.871232
2007-02-16 08:02:40 51°13.694 2°52.301 7.8006 3.431253 31.735842 -2.871232
2007-02-16 08:02:45 51°13.685 2°52.274 7.8021 3.430218 31.726957 -2.871232
2007-02-16 08:02:49 51°13.677 2°52.251 7.8058 3.424626 31.670444 -2.871232
2007-02-16 08:02:54 51°13.668 2°52.224 7.7993 3.424626 31.670444 -2.871232
2007-02-16 08:03:00 51°13.657 2°52.191 7.7985 3.42649 31.689571 -2.871232
2007-02-16 08:03:05 51°13.647 2°52.163 7.8007 3.43291 31.756336 -2.871232
2007-02-16 08:03:10 51°13.638 2°52.136 7.7996 3.423487 31.662235 -2.871232
2007-02-16 08:03:15 51°13.628 2°52.108 7.8026 3.422348 31.652286 -2.871232
2007-02-16 08:03:20 51°13.619 2°52.08 7.8032 3.423798 31.667163 -2.871232
2007-02-16 08:03:25 51°13.609 2°52.053 7.7979 3.423798 31.667163 -2.871232
2007-02-16 08:03:30 51°13.6 2°52.025 7.797 3.424316 31.674216 -2.871232
2007-02-16 08:03:34 51°13.593 2°52.002 7.8002 3.423902 31.671705 -2.871232
2007-02-16 08:03:40 51°13.581 2°51.969 7.7993 3.425662 31.689774 -2.871232
2007-02-16 08:03:45 51°13.572 2°51.941 7.7955 3.42649 31.698277 -2.871232
2007-02-16 08:03:50 51°13.563 2°51.914 7.8001 3.419553 31.626204 -2.871232
2007-02-16 08:03:55 51°13.554 2°51.886 7.8031 3.419553 31.626204 -2.871232
2007-02-16 08:04:00 51°13.545 2°51.858 7.8028 3.425869 31.691899 -2.871232
2007-02-16 08:04:05 51°13.535 2°51.831 7.7995 3.423177 31.665136 -2.871232
2007-02-16 08:04:10 51°13.526 2°51.803 7.8042 3.422452 31.656827 -2.871232
2007-02-16 08:04:15 51°13.517 2°51.775 7.8036 3.421934 31.652383 -2.871232
2007-02-16 08:04:20 51°13.507 2°51.747 7.8034 3.419449 31.626879 -2.871232
2007-02-16 08:04:25 51°13.498 2°51.72 7.8035 3.419449 31.626879 -2.871232
2007-02-16 08:04:30 51°13.489 2°51.692 7.8062 3.425351 31.685714 -2.871232
2007-02-16 08:04:35 51°13.48 2°51.664 7.8088 3.424626 31.678275 -2.871232
2007-02-16 08:04:40 51°13.47 2°51.637 7.8044 3.42297 31.660401 -2.871232
2007-02-16 08:04:45 51°13.461 2°51.609 7.8032 3.424212 31.671413 -2.871232
2007-02-16 08:04:50 51°13.452 2°51.581 7.8034 3.42297 31.658661 -2.871232
2007-02-16 08:04:54 51°13.444 2°51.559 7.8055 3.42297 31.658661 -2.871232
2007-02-16 08:05:00 51°13.433 2°51.526 7.8014 3.429597 31.724937 -2.871232
2007-02-16 08:05:05 51°13.424 2°51.498 7.8041 3.42618 31.689864 -2.871232
2007-02-16 08:05:10 51°13.414 2°51.47 7.804 3.428768 31.716434 -2.871232
2007-02-16 08:05:14 51°13.407 2°51.448 7.8011 3.430011 31.730932 -2.871232
2007-02-16 08:05:20 51°13.395 2°51.415 7.8044 3.431564 31.746877 -2.871232
2007-02-16 08:05:25 51°13.386 2°51.388 7.8087 3.431564 31.746877 -2.871232
2007-02-16 08:05:30 51°13.377 2°51.36 7.8025 3.427836 31.708611 -2.871232
2007-02-16 08:05:34 51°13.369 2°51.338 7.8083 3.425973 31.69035 -2.871232
2007-02-16 08:05:40 51°13.358 2°51.305 7.8051 3.431668 31.74794 -2.871232
2007-02-16 08:05:45 51°13.349 2°51.277 7.8034 3.432703 31.759444 -2.871232
2007-02-16 08:05:50 51°13.34 2°51.249 7.8062 3.432807 31.759634 -2.871232
2007-02-16 08:05:55 51°13.33 2°51.221 7.8078 3.432807 31.759634 -2.871232
2007-02-16 08:06:00 51°13.321 2°51.193 7.8065 3.429907 31.728998 -2.871232
2007-02-16 08:06:05 51°13.311 2°51.166 7.8073 3.423487 31.663105 -2.871232
2007-02-16 08:06:10 51°13.302 2°51.138 7.8105 3.425041 31.679045 -2.871232
2007-02-16 08:06:15 51°13.293 2°51.111 7.8098 3.432496 31.756445 -2.871232
2007-02-16 08:06:20 51°13.283 2°51.083 7.8087 3.430736 31.737501 -2.871232
2007-02-16 08:06:25 51°13.274 2°51.055 7.8131 3.430736 31.737501 -2.871232
2007-02-16 08:06:30 51°13.264 2°51.028 7.8125 3.433739 31.76833 -2.871232
2007-02-16 08:06:35 51°13.255 2°51 7.8157 3.432807 31.75789 -2.871232
2007-02-16 08:06:40 51°13.246 2°50.973 7.8128 3.434463 31.774026 -2.871232
2007-02-16 08:06:45 51°13.237 2°50.945 7.8176 3.433946 31.767838 -2.871232
2007-02-16 08:06:50 51°13.228 2°50.917 7.8164 3.427733 31.704935 -2.871232
2007-02-16 08:06:55 51°13.218 2°50.889 7.817 3.427733 31.704935 -2.871232
2007-02-16 08:07:00 51°13.209 2°50.862 7.8183 3.434774 31.77547 -2.871232
2007-02-16 08:07:05 51°13.2 2°50.834 7.8193 3.434463 31.770536 -2.871232
2007-02-16 08:07:10 51°13.19 2°50.806 7.8187 3.436017 31.786481 -2.871232
2007-02-16 08:07:15 51°13.181 2°50.778 7.8198 3.43612 31.785798 -2.871232
2007-02-16 08:07:20 51°13.172 2°50.751 7.8168 3.432496 31.746852 -2.871232
2007-02-16 08:07:25 51°13.163 2°50.723 7.8197 3.432496 31.746852 -2.871232
2007-02-16 08:07:30 51°13.154 2°50.695 7.8178 3.437259 31.795745 -2.871232
2007-02-16 08:07:34 51°13.146 2°50.673 7.8215 3.434153 31.762985 -2.871232
2007-02-16 08:07:40 51°13.135 2°50.639 7.8183 3.429907 31.719413 -2.871232
2007-02-16 08:07:45 51°13.126 2°50.612 7.8216 3.437673 31.799124 -2.871232
2007-02-16 08:07:50 51°13.116 2°50.584 7.8252 3.43757 31.798934 -2.871232
2007-02-16 08:07:54 51°13.109 2°50.562 7.8226 3.43757 31.798934 -2.871232
2007-02-16 08:08:00 51°13.098 2°50.529 7.825 3.432185 31.742792 -2.871232
2007-02-16 08:08:05 51°13.088 2°50.501 7.8229 3.437259 31.794872 -2.871232
2007-02-16 08:08:10 51°13.079 2°50.474 7.8249 3.441505 31.838459 -2.871232
2007-02-16 08:08:15 51°13.07 2°50.446 7.83 3.437052 31.791873 -2.871232
2007-02-16 08:08:20 51°13.061 2°50.418 7.8249 3.440055 31.820953 -2.871232
2007-02-16 08:08:25 51°13.051 2°50.391 7.8244 3.440055 31.820953 -2.871232
2007-02-16 08:08:30 51°13.042 2°50.363 7.825 3.443161 31.851972 -2.871232
2007-02-16 08:08:35 51°13.032 2°50.336 7.83 3.44109 31.83071 -2.871232
2007-02-16 08:08:40 51°13.023 2°50.308 7.8282 3.44399 31.859603 -2.871232
2007-02-16 08:08:45 51°13.014 2°50.28 7.8277 3.440883 31.826836 -2.871232
2007-02-16 08:08:50 51°13.004 2°50.253 7.8292 3.438398 31.800452 -2.871232
2007-02-16 08:08:55 51°12.995 2°50.225 7.8258 3.438398 31.800452 -2.871232
2007-02-16 08:09:00 51°12.986 2°50.197 7.8286 3.444611 31.865107 -2.871232
2007-02-16 08:09:05 51°12.977 2°50.169 7.8239 3.444818 31.867233 -2.871232
2007-02-16 08:09:10 51°12.967 2°50.142 7.8263 3.444715 31.865295 -2.871232
2007-02-16 08:09:15 51°12.958 2°50.114 7.8221 3.444715 31.86442 -2.871232
2007-02-16 08:09:20 51°12.949 2°50.086 7.8214 3.443472 31.851663 -2.871232
2007-02-16 08:09:25 51°12.94 2°50.058 7.821 3.443472 31.851663 -2.871232
2007-02-16 08:09:30 51°12.931 2°50.03 7.8207 3.447614 31.895066 -2.871232
2007-02-16 08:09:35 51°12.922 2°50.002 7.8198 3.445439 31.873613 -2.871232
2007-02-16 08:09:40 51°12.913 2°49.974 7.8186 3.449685 31.917209 -2.871232
2007-02-16 08:09:45 51°12.903 2°49.946 7.8206 3.448442 31.905324 -2.871232
2007-02-16 08:09:50 51°12.894 2°49.919 7.8235 3.446475 31.885996 -2.871232
2007-02-16 08:09:55 51°12.885 2°49.891 7.8208 3.446475 31.885996 -2.871232
2007-02-16 08:10:00 51°12.876 2°49.863 7.8189 3.44896 31.91327 -2.871232
2007-02-16 08:10:05 51°12.867 2°49.835 7.8192 3.448339 31.907765 -2.871232
2007-02-16 08:10:10 51°12.857 2°49.807 7.8196 3.450514 31.9301 -2.871232
2007-02-16 08:10:15 51°12.848 2°49.78 7.8166 3.448028 31.905451 -2.871232
2007-02-16 08:10:20 51°12.839 2°49.752 7.8168 3.446682 31.89075 -2.871232
2007-02-16 08:10:25 51°12.83 2°49.724 7.8167 3.446682 31.89075 -2.871232
2007-02-16 08:10:30 51°12.82 2°49.696 7.8158 3.447511 31.899257 -2.871232
2007-02-16 08:10:35 51°12.811 2°49.669 7.8164 3.445957 31.885057 -2.871232
2007-02-16 08:10:40 51°12.802 2°49.641 7.8121 3.443058 31.855283 -2.871232
2007-02-16 08:10:45 51°12.792 2°49.613 7.8194 3.450099 31.928476 -2.871232
2007-02-16 08:10:50 51°12.783 2°49.585 7.8128 3.449685 31.925975 -2.871232
2007-02-16 08:10:55 51°12.774 2°49.557 7.8107 3.449685 31.925975 -2.871232
2007-02-16 08:11:00 51°12.765 2°49.53 7.8148 3.444715 31.874922 -2.871232
2007-02-16 08:11:05 51°12.756 2°49.502 7.813 3.452895 31.958953 -2.871232
2007-02-16 08:11:10 51°12.746 2°49.474 7.8136 3.449892 31.92898 -2.871232
2007-02-16 08:11:15 51°12.737 2°49.446 7.8101 3.448028 31.909833 -2.871232
2007-02-16 08:11:20 51°12.728 2°49.419 7.8106 3.451549 31.946878 -2.871232
2007-02-16 08:11:25 51°12.719 2°49.391 7.8063 3.451549 31.946878 -2.871232
2007-02-16 08:11:30 51°12.709 2°49.363 7.8055 3.447821 31.909458 -2.871232
2007-02-16 08:11:35 51°12.7 2°49.335 7.8084 3.453827 31.971163 -2.871232
2007-02-16 08:11:40 51°12.691 2°49.308 7.8067 3.454759 31.981618 -2.871232
2007-02-16 08:11:45 51°12.682 2°49.28 7.8039 3.455173 31.987632 -2.871232
2007-02-16 08:11:50 51°12.672 2°49.252 7.8055 3.450928 31.944882 -2.871232
2007-02-16 08:11:55 51°12.663 2°49.224 7.8144 3.450928 31.944882 -2.871232
2007-02-16 08:12:00 51°12.654 2°49.197 7.8084 3.456727 32.006233 -2.871232
2007-02-16 08:12:05 51°12.645 2°49.169 7.8076 3.455277 31.992212 -2.871232
2007-02-16 08:12:10 51°12.636 2°49.141 7.8063 3.459109 32.031594 -2.871232
2007-02-16 08:12:15 51°12.626 2°49.114 7.8098 3.457866 32.019701 -2.871232
2007-02-16 08:12:20 51°12.617 2°49.086 7.807 3.459937 32.040991 -2.871232
2007-02-16 08:12:25 51°12.608 2°49.058 7.807 3.459937 32.040991 -2.871232
2007-02-16 08:12:30 51°12.599 2°49.031 7.8074 3.451031 31.947702 -2.871232
2007-02-16 08:12:35 51°12.59 2°49.003 7.8046 3.460869 32.048811 -2.871232
2007-02-16 08:12:40 51°12.58 2°48.975 7.8045 3.463147 32.073995 -2.871232
2007-02-16 08:12:45 51°12.571 2°48.948 7.8063 3.46118 32.052885 -2.871232
2007-02-16 08:12:50 51°12.562 2°48.92 7.8022 3.464286 32.084826 -2.871232
2007-02-16 08:12:55 51°12.553 2°48.892 7.7989 3.464286 32.084826 -2.871232
2007-02-16 08:13:00 51°12.544 2°48.864 7.8063 3.461697 32.058208 -2.871232
2007-02-16 08:13:05 51°12.535 2°48.837 7.8049 3.463147 32.074876 -2.871232
2007-02-16 08:13:10 51°12.525 2°48.809 7.8027 3.465736 32.103261 -2.871232
2007-02-16 08:13:15 51°12.516 2°48.782 7.8053 3.466668 32.112846 -2.871232
2007-02-16 08:13:20 51°12.507 2°48.754 7.804 3.467082 32.117988 -2.871232
2007-02-16 08:13:25 51°12.498 2°48.726 7.8005 3.467082 32.117988 -2.871232
2007-02-16 08:13:30 51°12.489 2°48.699 7.8007 3.464079 32.087986 -2.871232
2007-02-16 08:13:35 51°12.48 2°48.671 7.8008 3.465218 32.097936 -2.871232
2007-02-16 08:13:40 51°12.47 2°48.644 7.7989 3.464597 32.093311 -2.871232
2007-02-16 08:13:45 51°12.461 2°48.616 7.8004 3.468221 32.129704 -2.871232
2007-02-16 08:13:50 51°12.452 2°48.588 7.8053 3.469257 32.140355 -2.871232
2007-02-16 08:13:55 51°12.443 2°48.561 7.8067 3.469257 32.140355 -2.871232
2007-02-16 08:14:00 51°12.434 2°48.533 7.8077 3.47081 32.158101 -2.871232
2007-02-16 08:14:05 51°12.424 2°48.506 7.8125 3.469464 32.145136 -2.871232
2007-02-16 08:14:10 51°12.415 2°48.478 7.8016 3.472674 32.178161 -2.871232
2007-02-16 08:14:15 51°12.405 2°48.451 7.8015 3.471121 32.162181 -2.871232
2007-02-16 08:14:20 51°12.396 2°48.424 7.8018 3.46149 32.062246 -2.871232
2007-02-16 08:14:25 51°12.387 2°48.396 7.7997 3.46149 32.062246 -2.871232
2007-02-16 08:14:30 51°12.378 2°48.369 7.8005 3.471017 32.159348 -2.871232
2007-02-16 08:14:35 51°12.369 2°48.341 7.8028 3.466875 32.114093 -2.871232
2007-02-16 08:14:40 51°12.359 2°48.314 7.8003 3.467497 32.121366 -2.871232
2007-02-16 08:14:45 51°12.35 2°48.286 7.8036 3.471017 32.159348 -2.871232
2007-02-16 08:14:50 51°12.341 2°48.259 7.8078 3.460248 32.050349 -2.871232
2007-02-16 08:14:55 51°12.331 2°48.232 7.8114 3.460248 32.050349 -2.871232
2007-02-16 08:15:00 51°12.322 2°48.204 7.8096 3.469257 32.144772 -2.871232
2007-02-16 08:15:05 51°12.313 2°48.177 7.813 3.471432 32.167145 -2.871232
2007-02-16 08:15:10 51°12.304 2°48.15 7.8134 3.474849 32.202306 -2.871232
2007-02-16 08:15:14 51°12.297 2°48.128 7.8113 3.473192 32.184373 -2.871232
2007-02-16 08:15:20 51°12.286 2°48.095 7.8157 3.47195 32.168935 -2.871232
2007-02-16 08:15:25 51°12.277 2°48.068 7.8152 3.47195 32.168935 -2.871232
2007-02-16 08:15:30 51°12.268 2°48.041 7.8232 3.471328 32.160776 -2.871232
2007-02-16 08:15:35 51°12.259 2°48.013 7.8279 3.474331 32.189016 -2.871232
2007-02-16 08:15:40 51°12.249 2°47.986 7.8236 3.472674 32.171088 -2.871232
2007-02-16 08:15:45 51°12.24 2°47.959 7.8229 3.46905 32.132044 -2.871232
2007-02-16 08:15:50 51°12.231 2°47.932 7.8238 3.474124 32.184232 -2.871232
2007-02-16 08:15:55 51°12.222 2°47.904 7.8249 3.474124 32.184232 -2.871232
2007-02-16 08:16:00 51°12.213 2°47.877 7.8266 3.476402 32.205898 -2.871232
2007-02-16 08:16:05 51°12.204 2°47.85 7.8256 3.475988 32.197214 -2.871232
2007-02-16 08:16:10 51°12.196 2°47.822 7.8279 3.477852 32.213732 -2.871232
2007-02-16 08:16:14 51°12.189 2°47.799 7.82 3.472571 32.159419 -2.871232
2007-02-16 08:16:20 51°12.18 2°47.766 7.8239 3.478784 32.222432 -2.871232
2007-02-16 08:16:25 51°12.172 2°47.738 7.8245 3.478784 32.222432 -2.871232
2007-02-16 08:16:30 51°12.163 2°47.71 7.8268 3.47982 32.231313 -2.871232
2007-02-16 08:16:35 51°12.155 2°47.682 7.8235 3.478163 32.213388 -2.871232
2007-02-16 08:16:40 51°12.147 2°47.654 7.8233 3.473813 32.168663 -2.871232
2007-02-16 08:16:45 51°12.139 2°47.626 7.8209 3.466771 32.097153 -2.871232
2007-02-16 08:16:50 51°12.131 2°47.598 7.82 3.480234 32.234688 -2.871232
2007-02-16 08:16:55 51°12.123 2°47.57 7.8173 3.480234 32.234688 -2.871232
2007-02-16 08:17:00 51°12.115 2°47.541 7.8166 3.481062 32.243209 -2.871232
2007-02-16 08:17:05 51°12.106 2°47.513 7.8148 3.481062 32.244094 -2.871232
2007-02-16 08:17:10 51°12.099 2°47.485 7.8179 3.480752 32.240899 -2.871232
2007-02-16 08:17:15 51°12.09 2°47.457 7.8232 3.480855 32.243735 -2.871232
2007-02-16 08:17:20 51°12.082 2°47.429 7.8211 3.480648 32.242491 -2.871232
2007-02-16 08:17:25 51°12.074 2°47.402 7.8138 3.480648 32.242491 -2.871232
2007-02-16 08:17:30 51°12.066 2°47.374 7.8178 3.480338 32.241066 -2.871232
2007-02-16 08:17:35 51°12.057 2°47.346 7.8141 3.479923 32.238576 -2.871232
2007-02-16 08:17:40 51°12.049 2°47.318 7.8145 3.478991 32.229874 -2.871232
2007-02-16 08:17:45 51°12.041 2°47.29 7.8111 3.478681 32.224908 -2.871232
2007-02-16 08:17:50 51°12.033 2°47.262 7.8168 3.47837 32.221712 -2.871232
2007-02-16 08:17:55 51°12.026 2°47.234 7.8218 3.47837 32.221712 -2.871232
2007-02-16 08:18:00 51°12.018 2°47.206 7.82 3.478266 32.221532 -2.871232
2007-02-16 08:18:05 51°12.009 2°47.178 7.8224 3.478059 32.220287 -2.871232
2007-02-16 08:18:10 51°12.001 2°47.15 7.8315 3.478163 32.222237 -2.871232
2007-02-16 08:18:15 51°11.993 2°47.122 7.8272 3.478163 32.223123 -2.871232
2007-02-16 08:18:20 51°11.985 2°47.094 7.8289 3.478059 32.221172 -2.871232
2007-02-16 08:18:25 51°11.977 2°47.067 7.828 3.478059 32.221172 -2.871232
2007-02-16 08:18:30 51°11.969 2°47.039 7.8305 3.478266 32.222417 -2.871232
2007-02-16 08:18:35 51°11.96 2°47.011 7.8297 3.478577 32.223843 -2.871232
2007-02-16 08:18:40 51°11.952 2°46.983 7.8184 3.478991 32.224563 -2.871232
2007-02-16 08:18:45 51°11.944 2°46.955 7.8215 3.478888 32.220842 -2.871232
2007-02-16 08:18:50 51°11.937 2°46.927 7.8177 3.479095 32.222088 -2.871232
2007-02-16 08:18:54 51°11.93 2°46.905 7.8176 3.479095 32.222088 -2.871232
2007-02-16 08:19:00 51°11.921 2°46.872 7.8217 3.47868 32.216943 -2.871232
2007-02-16 08:19:05 51°11.912 2°46.844 7.8229 3.478888 32.219073 -2.871232
2007-02-16 08:19:10 51°11.904 2°46.816 7.8279 3.47837 32.217287 -2.871232
2007-02-16 08:19:14 51°11.898 2°46.794 7.8281 3.478473 32.220122 -2.871232
2007-02-16 08:19:20 51°11.888 2°46.76 7.8368 3.477956 32.216566 -2.871232
2007-02-16 08:19:25 51°11.88 2°46.733 7.8322 3.477956 32.216566 -2.871232
2007-02-16 08:19:30 51°11.872 2°46.705 7.8341 3.478163 32.219582 -2.871232
2007-02-16 08:19:35 51°11.864 2°46.677 7.8335 3.47837 32.221712 -2.871232
2007-02-16 08:19:40 51°11.856 2°46.65 7.8305 3.47837 32.219942 -2.871232
2007-02-16 08:19:45 51°11.848 2°46.622 7.8279 3.478266 32.216222 -2.871232
2007-02-16 08:19:50 51°11.84 2°46.594 7.8297 3.47868 32.216943 -2.871232
2007-02-16 08:19:55 51°11.832 2°46.566 7.8285 3.47868 32.216943 -2.871232
2007-02-16 08:20:00 51°11.824 2°46.538 7.8288 3.478888 32.217303 -2.871232
2007-02-16 08:20:05 51°11.815 2°46.511 7.8328 3.478991 32.217483 -2.871232
2007-02-16 08:20:10 51°11.807 2°46.483 7.8332 3.47868 32.214289 -2.871232
2007-02-16 08:20:15 51°11.799 2°46.455 7.8294 3.478888 32.216418 -2.871232
2007-02-16 08:20:20 51°11.791 2°46.427 7.83 3.478888 32.217303 -2.871232
2007-02-16 08:20:25 51°11.783 2°46.399 7.827 3.478888 32.217303 -2.871232
2007-02-16 08:20:30 51°11.775 2°46.371 7.8286 3.478577 32.214108 -2.871232
2007-02-16 08:20:35 51°11.767 2°46.344 7.8252 3.478577 32.214993 -2.871232
2007-02-16 08:20:40 51°11.759 2°46.316 7.8242 3.478266 32.210029 -2.871232
2007-02-16 08:20:45 51°11.751 2°46.288 7.8229 3.478473 32.213044 -2.871232
2007-02-16 08:20:50 51°11.743 2°46.26 7.8249 3.478266 32.211798 -2.871232
2007-02-16 08:20:55 51°11.735 2°46.232 7.8253 3.478266 32.211798 -2.871232
2007-02-16 08:21:00 51°11.727 2°46.205 7.824 3.478059 32.210553 -2.871232
2007-02-16 08:21:05 51°11.719 2°46.177 7.8269 3.477645 32.207178 -2.871232
2007-02-16 08:21:10 51°11.711 2°46.149 7.8255 3.477645 32.208947 -2.871232
2007-02-16 08:21:15 51°11.703 2°46.121 7.827 3.477645 32.209832 -2.871232
2007-02-16 08:21:20 51°11.695 2°46.093 7.8274 3.477645 32.210717 -2.871232
2007-02-16 08:21:25 51°11.687 2°46.065 7.8273 3.477645 32.210717 -2.871232
2007-02-16 08:21:30 51°11.679 2°46.038 7.8274 3.477645 32.210717 -2.871232
2007-02-16 08:21:35 51°11.671 2°46.01 7.8268 3.477438 32.208587 -2.871232
2007-02-16 08:21:40 51°11.664 2°45.982 7.8244 3.477231 32.205572 -2.871232
2007-02-16 08:21:45 51°11.656 2°45.954 7.8235 3.477334 32.206637 -2.871232
2007-02-16 08:21:50 51°11.648 2°45.926 7.8238 3.477334 32.204868 -2.871232
2007-02-16 08:21:55 51°11.64 2°45.899 7.8249 3.477334 32.204868 -2.871232
2007-02-16 08:22:00 51°11.632 2°45.871 7.8302 3.477334 32.205752 -2.871232
2007-02-16 08:22:05 51°11.624 2°45.843 7.8339 3.468635 32.11455 -2.871232
2007-02-16 08:22:10 51°11.616 2°45.816 7.8313 3.477127 32.202738 -2.871232
2007-02-16 08:22:15 51°11.607 2°45.788 7.832 3.477024 32.204327 -2.871232
2007-02-16 08:22:20 51°11.599 2°45.761 7.8317 3.477024 32.205211 -2.871232
2007-02-16 08:22:25 51°11.591 2°45.733 7.8308 3.477024 32.205211 -2.871232
2007-02-16 08:22:30 51°11.583 2°45.705 7.8347 3.476817 32.202197 -2.871232
2007-02-16 08:22:35 51°11.575 2°45.677 7.838 3.476816 32.199543 -2.871232
2007-02-16 08:22:40 51°11.567 2°45.649 7.8322 3.476816 32.197775 -2.871232
2007-02-16 08:22:45 51°11.559 2°45.621 7.8327 3.477024 32.198136 -2.871232
2007-02-16 08:22:50 51°11.552 2°45.594 7.8314 3.477127 32.199201 -2.871232
2007-02-16 08:22:55 51°11.544 2°45.566 7.8272 3.477127 32.199201 -2.871232
2007-02-16 08:23:00 51°11.535 2°45.539 7.8279 3.476713 32.194941 -2.871232
2007-02-16 08:23:05 51°11.527 2°45.511 7.8284 3.476506 32.191044 -2.871232
2007-02-16 08:23:10 51°11.52 2°45.483 7.8277 3.476299 32.188914 -2.871232
2007-02-16 08:23:14 51°11.513 2°45.461 7.8278 3.476092 32.187669 -2.871232
2007-02-16 08:23:20 51°11.504 2°45.428 7.8284 3.476195 32.188734 -2.871232
2007-02-16 08:23:25 51°11.496 2°45.4 7.8304 3.476195 32.188734 -2.871232
2007-02-16 08:23:30 51°11.488 2°45.372 7.8314 3.476092 32.190321 -2.871232
2007-02-16 08:23:34 51°11.482 2°45.35 7.8325 3.476195 32.19227 -2.871232
2007-02-16 08:23:40 51°11.472 2°45.317 7.8349 3.476092 32.191205 -2.871232
2007-02-16 08:23:45 51°11.464 2°45.289 7.8312 3.476402 32.195284 -2.871232
2007-02-16 08:23:50 51°11.457 2°45.261 7.8329 3.476195 32.193154 -2.871232
2007-02-16 08:23:55 51°11.448 2°45.234 7.8326 3.476195 32.193154 -2.871232
2007-02-16 08:24:00 51°11.441 2°45.206 7.831 3.476402 32.194399 -2.871232
2007-02-16 08:24:05 51°11.433 2°45.178 7.8308 3.476299 32.19245 -2.871232
2007-02-16 08:24:10 51°11.425 2°45.15 7.8356 3.476299 32.190682 -2.871232
2007-02-16 08:24:15 51°11.417 2°45.122 7.8322 3.476092 32.187669 -2.871232
2007-02-16 08:24:20 51°11.409 2°45.095 7.8302 3.476092 32.188553 -2.871232
2007-02-16 08:24:25 51°11.401 2°45.067 7.8318 3.476092 32.188553 -2.871232
2007-02-16 08:24:30 51°11.393 2°45.039 7.8307 3.476092 32.188553 -2.871232
2007-02-16 08:24:35 51°11.385 2°45.011 7.8326 3.476195 32.189618 -2.871232
2007-02-16 08:24:40 51°11.378 2°44.984 7.8324 3.476195 32.188734 -2.871232
2007-02-16 08:24:45 51°11.37 2°44.956 7.8329 3.476299 32.189798 -2.871232
2007-02-16 08:24:50 51°11.362 2°44.928 7.8379 3.476195 32.189618 -2.871232
2007-02-16 08:24:55 51°11.354 2°44.901 7.8337 3.476195 32.189618 -2.871232
2007-02-16 08:25:00 51°11.346 2°44.873 7.8377 3.476195 32.189618 -2.871232
2007-02-16 08:25:05 51°11.338 2°44.845 7.8339 3.476092 32.188553 -2.871232
2007-02-16 08:25:10 51°11.33 2°44.817 7.8356 3.475988 32.187488 -2.871232
2007-02-16 08:25:15 51°11.322 2°44.79 7.8382 3.475781 32.185359 -2.871232
2007-02-16 08:25:20 51°11.315 2°44.762 7.8358 3.475781 32.184475 -2.871232
2007-02-16 08:25:25 51°11.307 2°44.734 7.8371 3.475781 32.184475 -2.871232
2007-02-16 08:25:30 51°11.299 2°44.707 7.8395 3.475781 32.183591 -2.871232
2007-02-16 08:25:35 51°11.291 2°44.679 7.8364 3.475677 32.182526 -2.871232
2007-02-16 08:25:40 51°11.283 2°44.652 7.8357 3.475677 32.182526 -2.871232
2007-02-16 08:25:45 51°11.275 2°44.624 7.8401 3.475574 32.180578 -2.871232
2007-02-16 08:25:50 51°11.267 2°44.596 7.8383 3.475574 32.179694 -2.871232
2007-02-16 08:25:54 51°11.261 2°44.574 7.8378 3.475574 32.179694 -2.871232
2007-02-16 08:26:00 51°11.252 2°44.541 7.838 3.47547 32.17863 -2.871232
2007-02-16 08:26:05 51°11.244 2°44.513 7.8407 3.47547 32.177746 -2.871232
2007-02-16 08:26:10 51°11.236 2°44.486 7.8409 3.475263 32.175617 -2.871232
2007-02-16 08:26:14 51°11.23 2°44.463 7.8418 3.475263 32.175617 -2.871232
2007-02-16 08:26:20 51°11.221 2°44.43 7.8449 3.475263 32.174734 -2.871232
2007-02-16 08:26:25 51°11.213 2°44.403 7.8448 3.475263 32.174734 -2.871232
2007-02-16 08:26:30 51°11.205 2°44.375 7.8452 3.475159 32.173669 -2.871232
2007-02-16 08:26:35 51°11.197 2°44.347 7.8465 3.474849 32.170476 -2.871232
2007-02-16 08:26:40 51°11.19 2°44.32 7.8479 3.474849 32.168709 -2.871232
2007-02-16 08:26:45 51°11.182 2°44.292 7.8499 3.474849 32.167826 -2.871232
2007-02-16 08:26:50 51°11.174 2°44.265 7.8506 3.474745 32.164995 -2.871232
2007-02-16 08:26:55 51°11.166 2°44.237 7.8528 3.474745 32.164995 -2.871232
2007-02-16 08:27:00 51°11.158 2°44.21 7.8539 3.474538 32.162867 -2.871232
2007-02-16 08:27:05 51°11.151 2°44.182 7.8541 3.474642 32.162165 -2.871232
2007-02-16 08:27:10 51°11.143 2°44.154 7.859 3.474642 32.161282 -2.871232
2007-02-16 08:27:15 51°11.135 2°44.127 7.8581 3.474745 32.161464 -2.871232
2007-02-16 08:27:20 51°11.127 2°44.099 7.8562 3.474642 32.159517 -2.871232
2007-02-16 08:27:25 51°11.119 2°44.072 7.8636 3.474642 32.159517 -2.871232
2007-02-16 08:27:30 51°11.112 2°44.044 7.8614 3.474745 32.158816 -2.871232
2007-02-16 08:27:35 51°11.104 2°44.017 7.8594 3.474745 32.15705 -2.871232
2007-02-16 08:27:40 51°11.096 2°43.989 7.8619 3.474849 32.156349 -2.871232
2007-02-16 08:27:45 51°11.088 2°43.962 7.8649 3.474849 32.154584 -2.871232
2007-02-16 08:27:50 51°11.08 2°43.934 7.8651 3.474952 32.154766 -2.871232
2007-02-16 08:27:55 51°11.073 2°43.906 7.867 3.474952 32.154766 -2.871232
2007-02-16 08:28:00 51°11.065 2°43.879 7.865 3.474952 32.152119 -2.871232
2007-02-16 08:28:05 51°11.057 2°43.851 7.865 3.475056 32.152301 -2.871232
2007-02-16 08:28:10 51°11.049 2°43.824 7.865 3.475056 32.152301 -2.871232
2007-02-16 08:28:15 51°11.041 2°43.796 7.8634 3.474952 32.149473 -2.871232
2007-02-16 08:28:20 51°11.033 2°43.769 7.865 3.474848 32.146645 -2.871232
2007-02-16 08:28:25 51°11.025 2°43.741 7.8634 3.474848 32.146645 -2.871232
2007-02-16 08:28:30 51°11.018 2°43.714 7.8664 3.474952 32.146827 -2.871232
2007-02-16 08:28:35 51°11.01 2°43.686 7.865 3.475159 32.148954 -2.871232
2007-02-16 08:28:40 51°11.002 2°43.659 7.8634 3.475263 32.150018 -2.871232
2007-02-16 08:28:45 51°10.994 2°43.631 7.8657 3.47547 32.152145 -2.871232
2007-02-16 08:28:50 51°10.986 2°43.604 7.8657 3.47547 32.153027 -2.871232
2007-02-16 08:28:55 51°10.979 2°43.577 7.863 3.47547 32.153027 -2.871232
2007-02-16 08:29:00 51°10.971 2°43.549 7.8643 3.475573 32.154091 -2.871232
2007-02-16 08:29:05 51°10.962 2°43.523 7.8648 3.475677 32.154273 -2.871232
2007-02-16 08:29:10 51°10.955 2°43.496 7.8684 3.47578 32.156219 -2.871232
2007-02-16 08:29:15 51°10.946 2°43.468 7.8644 3.47578 32.156219 -2.871232
2007-02-16 08:29:20 51°10.939 2°43.441 7.8647 3.475884 32.157282 -2.871232
2007-02-16 08:29:25 51°10.931 2°43.413 7.8651 3.475884 32.157282 -2.871232
2007-02-16 08:29:30 51°10.923 2°43.386 7.8647 3.475988 32.159228 -2.871232
2007-02-16 08:29:35 51°10.915 2°43.359 7.8625 3.476091 32.160292 -2.871232
2007-02-16 08:29:40 51°10.907 2°43.331 7.8659 3.476195 32.160474 -2.871232
2007-02-16 08:29:45 51°10.899 2°43.304 7.8632 3.476195 32.159591 -2.871232
2007-02-16 08:29:50 51°10.892 2°43.276 7.8631 3.475056 32.14789 -2.871232
2007-02-16 08:29:55 51°10.884 2°43.249 7.8629 3.475056 32.14789 -2.871232
2007-02-16 08:30:00 51°10.876 2°43.221 7.8634 3.476091 32.157645 -2.871232
2007-02-16 08:30:05 51°10.869 2°43.194 7.8631 3.475056 32.148772 -2.871232
2007-02-16 08:30:10 51°10.861 2°43.166 7.8667 3.475366 32.151964 -2.871232
2007-02-16 08:30:15 51°10.853 2°43.139 7.8641 3.476713 32.165793 -2.871232
2007-02-16 08:30:20 51°10.845 2°43.112 7.8664 3.47692 32.168803 -2.871232
2007-02-16 08:30:25 51°10.837 2°43.085 7.8653 3.47692 32.168803 -2.871232
2007-02-16 08:30:30 51°10.83 2°43.057 7.8642 3.47692 32.168803 -2.871232
2007-02-16 08:30:34 51°10.823 2°43.035 7.864 3.476816 32.168622 -2.871232
2007-02-16 08:30:40 51°10.814 2°43.003 7.8616 3.477023 32.169867 -2.871232
2007-02-16 08:30:45 51°10.806 2°42.975 7.8612 3.477023 32.169867 -2.871232
2007-02-16 08:30:50 51°10.798 2°42.948 7.8643 3.477023 32.169867 -2.871232
2007-02-16 08:30:55 51°10.79 2°42.921 7.8624 3.477023 32.169867 -2.871232
2007-02-16 08:31:00 51°10.783 2°42.893 7.8647 3.477127 32.170048 -2.871232
2007-02-16 08:31:05 51°10.775 2°42.866 7.8644 3.47723 32.172877 -2.871232
2007-02-16 08:31:10 51°10.767 2°42.839 7.8637 3.477334 32.174824 -2.871232
2007-02-16 08:31:15 51°10.759 2°42.812 7.8634 3.477437 32.176771 -2.871232
2007-02-16 08:31:20 51°10.751 2°42.785 7.8625 3.477541 32.176952 -2.871232
2007-02-16 08:31:25 51°10.743 2°42.757 7.8618 3.477541 32.176952 -2.871232
2007-02-16 08:31:30 51°10.736 2°42.73 7.8627 3.477645 32.178016 -2.871232
2007-02-16 08:31:35 51°10.728 2°42.703 7.8627 3.477645 32.177133 -2.871232
2007-02-16 08:31:40 51°10.72 2°42.675 7.8594 3.477748 32.178197 -2.871232
2007-02-16 08:31:45 51°10.713 2°42.648 7.8557 3.477852 32.179261 -2.871232
2007-02-16 08:31:50 51°10.705 2°42.621 7.8582 3.477955 32.180324 -2.871232
2007-02-16 08:31:55 51°10.697 2°42.593 7.8568 3.477955 32.180324 -2.871232
2007-02-16 08:32:00 51°10.689 2°42.566 7.8548 3.477955 32.181207 -2.871232
2007-02-16 08:32:05 51°10.681 2°42.539 7.8542 3.478059 32.183154 -2.871232
2007-02-16 08:32:10 51°10.673 2°42.512 7.8568 3.478162 32.185102 -2.871232
2007-02-16 08:32:15 51°10.665 2°42.485 7.8592 3.478162 32.186868 -2.871232
2007-02-16 08:32:20 51°10.657 2°42.458 7.8571 3.478162 32.186868 -2.871232
2007-02-16 08:32:25 51°10.649 2°42.43 7.8581 3.478162 32.186868 -2.871232
2007-02-16 08:32:30 51°10.641 2°42.403 7.8615 3.478266 32.189699 -2.871232
2007-02-16 08:32:35 51°10.633 2°42.376 7.8654 3.478266 32.190582 -2.871232
2007-02-16 08:32:40 51°10.625 2°42.349 7.8631 3.47837 32.191646 -2.871232
2007-02-16 08:32:45 51°10.617 2°42.321 7.869 3.47837 32.191646 -2.871232
2007-02-16 08:32:50 51°10.61 2°42.294 7.8701 3.478473 32.191827 -2.871232
2007-02-16 08:32:55 51°10.602 2°42.267 7.871 3.478473 32.191827 -2.871232
2007-02-16 08:33:00 51°10.594 2°42.24 7.8697 3.478577 32.192891 -2.871232
2007-02-16 08:33:05 51°10.586 2°42.213 7.8678 3.47868 32.191305 -2.871232
2007-02-16 08:33:10 51°10.578 2°42.186 7.8696 3.478784 32.190602 -2.871232
2007-02-16 08:33:15 51°10.571 2°42.158 7.8676 3.478887 32.189017 -2.871232
2007-02-16 08:33:20 51°10.563 2°42.131 7.8663 3.47868 32.185123 -2.871232
2007-02-16 08:33:25 51°10.555 2°42.104 7.8687 3.47868 32.185123 -2.871232
2007-02-16 08:33:30 51°10.548 2°42.077 7.8697 3.478784 32.183538 -2.871232
2007-02-16 08:33:35 51°10.54 2°42.05 7.8654 3.478887 32.185485 -2.871232
2007-02-16 08:33:40 51°10.532 2°42.023 7.8653 3.478887 32.186368 -2.871232
2007-02-16 08:33:45 51°10.524 2°41.996 7.8693 3.478991 32.187431 -2.871232
2007-02-16 08:33:50 51°10.516 2°41.969 7.8698 3.478991 32.187431 -2.871232
2007-02-16 08:33:55 51°10.509 2°41.942 7.8705 3.478991 32.187431 -2.871232
2007-02-16 08:34:00 51°10.501 2°41.915 7.8682 3.479094 32.188495 -2.871232
2007-02-16 08:34:05 51°10.494 2°41.888 7.8699 3.479301 32.18974 -2.871232
2007-02-16 08:34:10 51°10.486 2°41.861 7.8692 3.479509 32.192751 -2.871232
2007-02-16 08:34:15 51°10.478 2°41.834 7.8683 3.479509 32.193634 -2.871232
2007-02-16 08:34:20 51°10.47 2°41.807 7.8664 3.479716 32.194879 -2.871232
2007-02-16 08:34:25 51°10.463 2°41.78 7.8686 3.479716 32.194879 -2.871232
2007-02-16 08:34:30 51°10.455 2°41.752 7.8654 3.479612 32.192932 -2.871232
2007-02-16 08:34:34 51°10.449 2°41.731 7.8633 3.479819 32.195059 -2.871232
2007-02-16 08:34:40 51°10.44 2°41.698 7.8658 3.479819 32.195059 -2.871232
2007-02-16 08:34:45 51°10.432 2°41.671 7.8643 3.480026 32.197187 -2.871232
2007-02-16 08:34:50 51°10.424 2°41.644 7.8643 3.48013 32.198251 -2.871232
2007-02-16 08:34:55 51°10.417 2°41.617 7.8617 3.48013 32.198251 -2.871232
2007-02-16 08:35:00 51°10.409 2°41.59 7.8629 3.48013 32.199134 -2.871232
2007-02-16 08:35:05 51°10.401 2°41.563 7.8618 3.480233 32.201965 -2.871232
2007-02-16 08:35:10 51°10.394 2°41.536 7.86 3.48013 32.201785 -2.871232
2007-02-16 08:35:15 51°10.386 2°41.509 7.8599 3.48013 32.202668 -2.871232
2007-02-16 08:35:20 51°10.378 2°41.481 7.8594 3.480234 32.203732 -2.871232
2007-02-16 08:35:25 51°10.37 2°41.454 7.8587 3.480234 32.203732 -2.871232
2007-02-16 08:35:30 51°10.362 2°41.427 7.8548 3.480234 32.204616 -2.871232
2007-02-16 08:35:35 51°10.354 2°41.401 7.8545 3.480234 32.204616 -2.871232
2007-02-16 08:35:40 51°10.347 2°41.373 7.8525 3.48013 32.205319 -2.871232
2007-02-16 08:35:45 51°10.339 2°41.346 7.8541 3.480026 32.204255 -2.871232
2007-02-16 08:35:50 51°10.331 2°41.319 7.853 3.479819 32.20301 -2.871232
2007-02-16 08:35:55 51°10.324 2°41.292 7.849 3.479819 32.20301 -2.871232
2007-02-16 08:36:00 51°10.316 2°41.265 7.8497 3.479612 32.202649 -2.871232
2007-02-16 08:36:05 51°10.308 2°41.238 7.8523 3.479302 32.202108 -2.871232
2007-02-16 08:36:10 51°10.3 2°41.212 7.8465 3.478991 32.199799 -2.871232
2007-02-16 08:36:15 51°10.292 2°41.185 7.8469 3.478577 32.197309 -2.871232
2007-02-16 08:36:20 51°10.284 2°41.158 7.8404 3.478162 32.193052 -2.871232
2007-02-16 08:36:25 51°10.277 2°41.131 7.8396 3.478162 32.193052 -2.871232
2007-02-16 08:36:30 51°10.269 2°41.104 7.837 3.477438 32.187369 -2.871232
2007-02-16 08:36:35 51°10.261 2°41.077 7.8403 3.476816 32.180983 -2.871232
2007-02-16 08:36:40 51°10.253 2°41.05 7.8372 3.476091 32.174416 -2.871232
2007-02-16 08:36:45 51°10.245 2°41.023 7.8376 3.475366 32.169615 -2.871232
2007-02-16 08:36:50 51°10.238 2°40.996 7.8386 3.474642 32.164814 -2.871232
2007-02-16 08:36:54 51°10.231 2°40.975 7.8351 3.474642 32.164814 -2.871232
2007-02-16 08:37:00 51°10.222 2°40.942 7.8338 3.47402 32.161077 -2.871232
2007-02-16 08:37:05 51°10.215 2°40.915 7.8332 3.473399 32.156456 -2.871232
2007-02-16 08:37:10 51°10.207 2°40.888 7.8336 3.472985 32.153081 -2.871232
2007-02-16 08:37:14 51°10.201 2°40.866 7.8318 3.472467 32.148641 -2.871232
2007-02-16 08:37:20 51°10.193 2°40.834 7.8329 3.472156 32.145448 -2.871232
2007-02-16 08:37:25 51°10.185 2°40.807 7.8343 3.472156 32.145448 -2.871232
2007-02-16 08:37:30 51°10.178 2°40.779 7.8349 3.471846 32.14402 -2.871232
2007-02-16 08:37:35 51°10.17 2°40.752 7.8371 3.471328 32.13958 -2.871232
2007-02-16 08:37:40 51°10.163 2°40.725 7.8329 3.471017 32.137269 -2.871232
2007-02-16 08:37:45 51°10.156 2°40.698 7.8337 3.470914 32.136204 -2.871232
2007-02-16 08:37:50 51°10.148 2°40.671 7.8337 3.470707 32.134075 -2.871232
2007-02-16 08:37:55 51°10.141 2°40.644 7.835 3.470707 32.134075 -2.871232
2007-02-16 08:38:00 51°10.134 2°40.616 7.8323 3.470499 32.131946 -2.871232
2007-02-16 08:38:05 51°10.128 2°40.589 7.8311 3.470292 32.129817 -2.871232
2007-02-16 08:38:10 51°10.121 2°40.561 7.8271 3.470085 32.12857 -2.871232
2007-02-16 08:38:15 51°10.114 2°40.534 7.8117 3.470189 32.128753 -2.871232
2007-02-16 08:38:20 51°10.107 2°40.506 7.8036 3.470189 32.129635 -2.871232
2007-02-16 08:38:25 51°10.1 2°40.479 7.7928 3.470189 32.129635 -2.871232
2007-02-16 08:38:30 51°10.092 2°40.452 7.7825 3.470085 32.12857 -2.871232
2007-02-16 08:38:35 51°10.085 2°40.425 7.7745 3.470085 32.129453 -2.871232
2007-02-16 08:38:40 51°10.078 2°40.398 7.7679 3.468739 32.11826 -2.871232
2007-02-16 08:38:45 51°10.071 2°40.371 7.754 3.460972 32.043713 -2.871232
2007-02-16 08:38:50 51°10.063 2°40.344 7.7503 3.449168 31.932936 -2.871232
2007-02-16 08:38:55 51°10.056 2°40.317 7.7491 3.449168 31.932936 -2.871232
2007-02-16 08:39:00 51°10.049 2°40.29 7.7429 3.436224 31.81045 -2.871232
2007-02-16 08:39:05 51°10.042 2°40.263 7.7454 3.425455 31.709427 -2.871232
2007-02-16 08:39:10 51°10.035 2°40.235 7.7366 3.415722 31.619902 -2.871232
2007-02-16 08:39:15 51°10.028 2°40.208 7.7341 3.405886 31.528432 -2.871232
2007-02-16 08:39:20 51°10.021 2°40.181 7.7364 3.396567 31.440539 -2.871232
2007-02-16 08:39:25 51°10.014 2°40.154 7.7426 3.396567 31.440539 -2.871232
2007-02-16 08:39:30 51°10.006 2°40.127 7.7438 3.390872 31.388121 -2.871232
2007-02-16 08:39:35 51°9.999 2°40.1 7.739 3.387249 31.35437 -2.871232
2007-02-16 08:39:40 51°9.992 2°40.073 7.7387 3.383004 31.315102 -2.871232
2007-02-16 08:39:45 51°9.984 2°40.045 7.7392 3.379587 31.284335 -2.871232
2007-02-16 08:39:50 51°9.977 2°40.018 7.7409 3.377724 31.267786 -2.871232
2007-02-16 08:39:55 51°9.97 2°39.991 7.741 3.377724 31.267786 -2.871232
2007-02-16 08:40:00 51°9.963 2°39.964 7.7437 3.377413 31.263737 -2.871232
2007-02-16 08:40:05 51°9.956 2°39.937 7.7428 3.377723 31.266064 -2.871232
2007-02-16 08:40:10 51°9.948 2°39.909 7.7451 3.377931 31.269051 -2.871232
2007-02-16 08:40:15 51°9.941 2°39.883 7.7445 3.378655 31.276491 -2.871232
2007-02-16 08:40:20 51°9.934 2°39.855 7.7429 3.379794 31.287322 -2.871232
2007-02-16 08:40:25 51°9.927 2°39.828 7.7402 3.379794 31.287322 -2.871232
2007-02-16 08:40:30 51°9.92 2°39.801 7.7424 3.380622 31.295825 -2.871232
2007-02-16 08:40:35 51°9.912 2°39.774 7.7427 3.381761 31.306656 -2.871232
2007-02-16 08:40:40 51°9.905 2°39.747 7.7412 3.382486 31.313235 -2.871232
2007-02-16 08:40:45 51°9.898 2°39.72 7.7484 3.382279 31.311109 -2.871232
2007-02-16 08:40:50 51°9.891 2°39.693 7.7448 3.381865 31.307719 -2.871232
2007-02-16 08:40:55 51°9.883 2°39.666 7.7425 3.381865 31.307719 -2.871232
2007-02-16 08:41:00 51°9.876 2°39.639 7.7467 3.38114 31.300278 -2.871232
2007-02-16 08:41:05 51°9.868 2°39.612 7.7382 3.380519 31.293901 -2.871232
2007-02-16 08:41:10 51°9.861 2°39.585 7.7386 3.380001 31.289448 -2.871232
2007-02-16 08:41:15 51°9.854 2°39.557 7.7394 3.380105 31.288788 -2.871232
2007-02-16 08:41:20 51°9.847 2°39.53 7.7362 3.380001 31.286864 -2.871232
2007-02-16 08:41:25 51°9.84 2°39.504 7.7382 3.380001 31.286864 -2.871232
2007-02-16 08:41:30 51°9.832 2°39.477 7.7402 3.380105 31.289649 -2.871232
2007-02-16 08:41:35 51°9.825 2°39.45 7.732 3.380312 31.291775 -2.871232
2007-02-16 08:41:40 51°9.818 2°39.423 7.7308 3.380622 31.296687 -2.871232
2007-02-16 08:41:45 51°9.811 2°39.396 7.7328 3.380519 31.296485 -2.871232
2007-02-16 08:41:50 51°9.803 2°39.369 7.7321 3.379691 31.288843 -2.871232
2007-02-16 08:41:55 51°9.796 2°39.342 7.7318 3.379691 31.288843 -2.871232
2007-02-16 08:42:00 51°9.789 2°39.315 7.7305 3.378138 31.27376 -2.871232
2007-02-16 08:42:05 51°9.782 2°39.288 7.7321 3.376378 31.257411 -2.871232
2007-02-16 08:42:10 51°9.774 2°39.261 7.7322 3.374721 31.242986 -2.871232
2007-02-16 08:42:15 51°9.767 2°39.234 7.7335 3.37441 31.241518 -2.871232
2007-02-16 08:42:20 51°9.76 2°39.207 7.7335 3.375549 31.253211 -2.871232
2007-02-16 08:42:25 51°9.753 2°39.18 7.7356 3.375549 31.253211 -2.871232
2007-02-16 08:42:30 51°9.745 2°39.153 7.7361 3.376999 31.267233 -2.871232
2007-02-16 08:42:35 51°9.738 2°39.126 7.7391 3.378138 31.28065 -2.871232
2007-02-16 08:42:40 51°9.731 2°39.099 7.7385 3.378966 31.288294 -2.871232
2007-02-16 08:42:45 51°9.724 2°39.072 7.7343 3.380105 31.299989 -2.871232
2007-02-16 08:42:50 51°9.717 2°39.045 7.7385 3.381761 31.315277 -2.871232
2007-02-16 08:42:55 51°9.71 2°39.018 7.739 3.381761 31.315277 -2.871232
2007-02-16 08:43:00 51°9.703 2°38.991 7.742 3.383004 31.328037 -2.871232
2007-02-16 08:43:05 51°9.696 2°38.964 7.7388 3.383936 31.335881 -2.871232
2007-02-16 08:43:10 51°9.688 2°38.937 7.7394 3.384764 31.343525 -2.871232
2007-02-16 08:43:15 51°9.681 2°38.91 7.7381 3.385489 31.351832 -2.871232
2007-02-16 08:43:20 51°9.674 2°38.883 7.7436 3.38611 31.357349 -2.871232
2007-02-16 08:43:25 51°9.667 2°38.856 7.7373 3.38611 31.357349 -2.871232
2007-02-16 08:43:30 51°9.66 2°38.829 7.7458 3.387042 31.36692 -2.871232
2007-02-16 08:43:35 51°9.653 2°38.802 7.7438 3.388388 31.379017 -2.871232
2007-02-16 08:43:40 51°9.646 2°38.775 7.742 3.38963 31.391779 -2.871232
2007-02-16 08:43:45 51°9.638 2°38.749 7.7419 3.390459 31.400288 -2.871232
2007-02-16 08:43:50 51°9.631 2°38.722 7.7382 3.390976 31.405606 -2.871232
2007-02-16 08:43:55 51°9.624 2°38.695 7.7361 3.390976 31.405606 -2.871232
2007-02-16 08:44:00 51°9.616 2°38.669 7.7366 3.391494 31.410924 -2.871232
2007-02-16 08:44:05 51°9.609 2°38.642 7.7367 3.392529 31.41983 -2.871232
2007-02-16 08:44:10 51°9.602 2°38.615 7.7312 3.393979 31.43299 -2.871232
2007-02-16 08:44:14 51°9.596 2°38.594 7.7299 3.395428 31.448747 -2.871232
2007-02-16 08:44:20 51°9.587 2°38.562 7.7309 3.395946 31.455798 -2.871232
2007-02-16 08:44:25 51°9.58 2°38.535 7.731 3.395946 31.455798 -2.871232
2007-02-16 08:44:30 51°9.572 2°38.509 7.7323 3.395946 31.45753 -2.871232
2007-02-16 08:44:35 51°9.565 2°38.482 7.7342 3.395428 31.453077 -2.871232
2007-02-16 08:44:40 51°9.558 2°38.455 7.7353 3.394911 31.44949 -2.871232
2007-02-16 08:44:45 51°9.551 2°38.428 7.7331 3.3946 31.448896 -2.871232
2007-02-16 08:44:50 51°9.543 2°38.401 7.7334 3.395118 31.455083 -2.871232
2007-02-16 08:44:55 51°9.536 2°38.374 7.7348 3.395118 31.455083 -2.871232
2007-02-16 08:45:00 51°9.529 2°38.348 7.7368 3.395843 31.462531 -2.871232
2007-02-16 08:45:05 51°9.522 2°38.32 7.7378 3.397292 31.477429 -2.871232
2007-02-16 08:45:10 51°9.514 2°38.293 7.739 3.398845 31.492524 -2.871232
2007-02-16 08:45:15 51°9.507 2°38.266 7.7409 3.400916 31.513809 -2.871232
2007-02-16 08:45:20 51°9.5 2°38.239 7.7397 3.402987 31.535096 -2.871232
2007-02-16 08:45:25 51°9.493 2°38.212 7.7415 3.402987 31.535096 -2.871232
2007-02-16 08:45:30 51°9.486 2°38.185 7.7438 3.405058 31.554647 -2.871232
2007-02-16 08:45:35 51°9.479 2°38.158 7.74 3.407439 31.579131 -2.871232
2007-02-16 08:45:40 51°9.471 2°38.131 7.7412 3.409924 31.602942 -2.871232
2007-02-16 08:45:45 51°9.464 2°38.104 7.7437 3.411788 31.620364 -2.871232
2007-02-16 08:45:50 51°9.457 2°38.077 7.7474 3.413548 31.638465 -2.871232
2007-02-16 08:45:55 51°9.45 2°38.051 7.7425 3.413548 31.638465 -2.871232
2007-02-16 08:46:00 51°9.443 2°38.024 7.743 3.414273 31.645047 -2.871232
2007-02-16 08:46:05 51°9.436 2°37.997 7.7431 3.414894 31.650564 -2.871232
2007-02-16 08:46:10 51°9.429 2°37.97 7.7441 3.415101 31.653565 -2.871232
2007-02-16 08:46:15 51°9.421 2°37.943 7.7419 3.414998 31.649886 -2.871232
2007-02-16 08:46:20 51°9.414 2°37.916 7.7453 3.414998 31.649014 -2.871232
2007-02-16 08:46:25 51°9.407 2°37.889 7.7501 3.414998 31.649014 -2.871232
2007-02-16 08:46:30 51°9.4 2°37.862 7.7463 3.415619 31.655402 -2.871232
2007-02-16 08:46:35 51°9.394 2°37.835 7.7491 3.416447 31.664792 -2.871232
2007-02-16 08:46:40 51°9.387 2°37.807 7.7478 3.417483 31.67544 -2.871232
2007-02-16 08:46:45 51°9.381 2°37.78 7.7484 3.418415 31.685024 -2.871232
2007-02-16 08:46:50 51°9.375 2°37.752 7.7456 3.418932 31.689476 -2.871232
2007-02-16 08:46:55 51°9.369 2°37.725 7.7434 3.418932 31.689476 -2.871232
2007-02-16 08:47:00 51°9.363 2°37.697 7.7432 3.419139 31.688988 -2.871232
2007-02-16 08:47:05 51°9.356 2°37.67 7.7485 3.41945 31.69131 -2.871232
2007-02-16 08:47:10 51°9.35 2°37.642 7.7499 3.420071 31.696826 -2.871232
2007-02-16 08:47:15 51°9.344 2°37.615 7.754 3.420796 31.70428 -2.871232
2007-02-16 08:47:20 51°9.337 2°37.587 7.751 3.421728 31.714737 -2.871232
2007-02-16 08:47:25 51°9.331 2°37.56 7.7547 3.421728 31.714737 -2.871232
2007-02-16 08:47:30 51°9.325 2°37.533 7.7592 3.422556 31.725003 -2.871232
2007-02-16 08:47:35 51°9.318 2°37.505 7.7592 3.423178 31.730519 -2.871232
2007-02-16 08:47:40 51°9.312 2°37.478 7.7593 3.424213 31.740296 -2.871232
2007-02-16 08:47:45 51°9.306 2°37.45 7.7589 3.425249 31.749198 -2.871232
2007-02-16 08:47:50 51°9.3 2°37.423 7.7632 3.427423 31.77069 -2.871232
2007-02-16 08:47:55 51°9.294 2°37.395 7.7629 3.427423 31.77069 -2.871232
2007-02-16 08:48:00 51°9.287 2°37.368 7.7623 3.429701 31.792373 -2.871232
2007-02-16 08:48:05 51°9.281 2°37.34 7.7628 3.431772 31.81105 -2.871232
2007-02-16 08:48:10 51°9.275 2°37.313 7.7676 3.433636 31.827596 -2.871232
2007-02-16 08:48:15 51°9.269 2°37.285 7.7655 3.435707 31.848901 -2.871232
2007-02-16 08:48:20 51°9.262 2°37.258 7.7716 3.43726 31.863126 -2.871232
2007-02-16 08:48:25 51°9.256 2°37.231 7.7754 3.43726 31.863126 -2.871232
2007-02-16 08:48:30 51°9.25 2°37.203 7.7755 3.438917 31.879294 -2.871232
2007-02-16 08:48:35 51°9.244 2°37.176 7.7741 3.440263 31.892267 -2.871232
2007-02-16 08:48:40 51°9.237 2°37.148 7.7812 3.441195 31.900099 -2.871232
2007-02-16 08:48:45 51°9.231 2°37.12 7.7756 3.44192 31.906679 -2.871232
2007-02-16 08:48:50 51°9.225 2°37.093 7.777 3.44223 31.908119 -2.871232
2007-02-16 08:48:54 51°9.22 2°37.071 7.7754 3.44223 31.908119 -2.871232
2007-02-16 08:49:00 51°9.213 2°37.038 7.7785 3.442748 31.910811 -2.871232
2007-02-16 08:49:05 51°9.206 2°37.011 7.782 3.443576 31.916699 -2.871232
2007-02-16 08:49:10 51°9.2 2°36.983 7.7774 3.444612 31.925595 -2.871232
2007-02-16 08:49:15 51°9.194 2°36.956 7.7798 3.445751 31.936434 -2.871232
2007-02-16 08:49:20 51°9.188 2°36.928 7.7855 3.446683 31.946022 -2.871232
2007-02-16 08:49:25 51°9.181 2°36.901 7.7811 3.446683 31.946022 -2.871232
2007-02-16 08:49:30 51°9.175 2°36.873 7.7829 3.447511 31.954544 -2.871232
2007-02-16 08:49:35 51°9.169 2°36.846 7.7837 3.44834 31.961308 -2.871232
2007-02-16 08:49:40 51°9.163 2°36.818 7.7815 3.449375 31.971082 -2.871232
2007-02-16 08:49:45 51°9.156 2°36.791 7.7833 3.450721 31.984052 -2.871232
2007-02-16 08:49:50 51°9.15 2°36.763 7.7851 3.451239 31.98762 -2.871232
2007-02-16 08:49:55 51°9.144 2°36.736 7.7875 3.451239 31.98762 -2.871232
2007-02-16 08:50:00 51°9.138 2°36.708 7.7952 3.452275 31.998273 -2.871232
2007-02-16 08:50:05 51°9.132 2°36.681 7.7968 3.452792 32.00272 -2.871232
2007-02-16 08:50:10 51°9.125 2°36.654 7.7956 3.453828 32.013374 -2.871232
2007-02-16 08:50:15 51°9.119 2°36.626 7.7972 3.454967 32.024214 -2.871232
2007-02-16 08:50:20 51°9.112 2°36.599 7.7988 3.455795 32.030975 -2.871232
2007-02-16 08:50:25 51°9.106 2°36.572 7.7964 3.455795 32.030975 -2.871232
2007-02-16 08:50:30 51°9.1 2°36.544 7.7977 3.456624 32.036856 -2.871232
2007-02-16 08:50:35 51°9.095 2°36.517 7.8019 3.457659 32.044866 -2.871232
2007-02-16 08:50:40 51°9.088 2°36.489 7.8011 3.459005 32.056072 -2.871232
2007-02-16 08:50:45 51°9.082 2°36.462 7.8035 3.460559 32.071171 -2.871232
2007-02-16 08:50:50 51°9.076 2°36.435 7.8044 3.461801 32.082192 -2.871232
2007-02-16 08:50:55 51°9.07 2°36.407 7.8086 3.461801 32.082192 -2.871232
2007-02-16 08:51:00 51°9.064 2°36.38 7.8091 3.463355 32.097291 -2.871232
2007-02-16 08:51:05 51°9.058 2°36.353 7.8098 3.464908 32.11239 -2.871232
2007-02-16 08:51:10 51°9.051 2°36.326 7.8087 3.466151 32.122527 -2.871232
2007-02-16 08:51:15 51°9.045 2°36.298 7.8114 3.467497 32.135495 -2.871232
2007-02-16 08:51:20 51°9.039 2°36.271 7.8132 3.468532 32.145267 -2.871232
2007-02-16 08:51:25 51°9.033 2°36.244 7.8134 3.468532 32.145267 -2.871232
2007-02-16 08:51:30 51°9.027 2°36.216 7.818 3.469464 32.152205 -2.871232
2007-02-16 08:51:35 51°9.021 2°36.189 7.8165 3.470396 32.160026 -2.871232
2007-02-16 08:51:40 51°9.015 2°36.162 7.8174 3.471742 32.172994 -2.871232
2007-02-16 08:51:45 51°9.008 2°36.135 7.8171 3.472467 32.178683 -2.871232
2007-02-16 08:51:50 51°9.002 2°36.108 7.8158 3.473296 32.185438 -2.871232
2007-02-16 08:51:55 51°8.996 2°36.083 7.8182 3.473296 32.185438 -2.871232
2007-02-16 08:52:00 51°8.99 2°36.059 7.8177 3.474228 32.193258 -2.871232
2007-02-16 08:52:05 51°8.985 2°36.037 7.8183 3.47516 32.201963 -2.871232
2007-02-16 08:52:10 51°8.98 2°36.016 7.8173 3.475988 32.208716 -2.871232
2007-02-16 08:52:15 51°8.976 2°35.997 7.8188 3.476817 32.21724 -2.871232
2007-02-16 08:52:20 51°8.973 2°35.979 7.818 3.477645 32.225764 -2.871232
2007-02-16 08:52:25 51°8.972 2°35.962 7.8178 3.477645 32.225764 -2.871232
2007-02-16 08:52:30 51°8.972 2°35.946 7.8187 3.478266 32.231272 -2.871232
2007-02-16 08:52:35 51°8.974 2°35.931 7.8156 3.478888 32.238551 -2.871232
2007-02-16 08:52:40 51°8.977 2°35.918 7.8164 3.479406 32.242107 -2.871232
2007-02-16 08:52:45 51°8.98 2°35.906 7.8221 3.47982 32.244597 -2.871232
2007-02-16 08:52:50 51°8.985 2°35.895 7.8211 3.480234 32.247087 -2.871232
2007-02-16 08:52:54 51°8.989 2°35.887 7.8236 3.480234 32.247087 -2.871232
2007-02-16 08:53:00 51°8.996 2°35.877 7.8289 3.480752 32.250643 -2.871232
2007-02-16 08:53:05 51°9.002 2°35.871 7.8246 3.48127 32.25597 -2.871232
2007-02-16 08:53:10 51°9.008 2°35.865 7.825 3.481787 32.262184 -2.871232
2007-02-16 08:53:15 51°9.015 2°35.861 7.8231 3.481787 32.260411 -2.871232
2007-02-16 08:53:20 51°9.021 2°35.858 7.8254 3.482098 32.262721 -2.871232
2007-02-16 08:53:25 51°9.028 2°35.856 7.8225 3.482098 32.262721 -2.871232
2007-02-16 08:53:30 51°9.035 2°35.855 7.8245 3.482098 32.261835 -2.871232
2007-02-16 08:53:35 51°9.042 2°35.855 7.8281 3.481994 32.258111 -2.871232
2007-02-16 08:53:40 51°9.049 2°35.855 7.8226 3.482098 32.259176 -2.871232
2007-02-16 08:53:45 51°9.055 2°35.857 7.8323 3.482202 32.261128 -2.871232
2007-02-16 08:53:50 51°9.062 2°35.859 7.8333 3.482098 32.259176 -2.871232
2007-02-16 08:53:55 51°9.068 2°35.863 7.8431 3.482098 32.259176 -2.871232
2007-02-16 08:54:00 51°9.074 2°35.868 7.8335 3.481994 32.258997 -2.871232
2007-02-16 08:54:05 51°9.08 2°35.873 7.8406 3.481787 32.256866 -2.871232
2007-02-16 08:54:10 51°9.086 2°35.879 7.8316 3.481477 32.252784 -2.871232
2007-02-16 08:54:15 51°9.091 2°35.885 7.8246 3.481062 32.245866 -2.871232
2007-02-16 08:54:20 51°9.096 2°35.892 7.8322 3.480545 32.236998 -2.871232
2007-02-16 08:54:25 51°9.101 2°35.9 7.8255 3.480545 32.236998 -2.871232
2007-02-16 08:54:30 51°9.106 2°35.908 7.8297 3.479923 32.225297 -2.871232
2007-02-16 08:54:35 51°9.111 2°35.916 7.8221 3.479198 32.216074 -2.871232
2007-02-16 08:54:40 51°9.116 2°35.924 7.8186 3.478163 32.207196 -2.871232
2007-02-16 08:54:45 51°9.121 2°35.932 7.8174 3.477334 32.202215 -2.871232
2007-02-16 08:54:50 51°9.126 2°35.941 7.8145 3.476299 32.194219 -2.871232
2007-02-16 08:54:55 51°9.131 2°35.95 7.8178 3.476299 32.194219 -2.871232
2007-02-16 08:55:00 51°9.136 2°35.959 7.8144 3.475367 32.186403 -2.871232
2007-02-16 08:55:05 51°9.141 2°35.968 7.811 3.474538 32.180536 -2.871232
2007-02-16 08:55:10 51°9.147 2°35.978 7.8143 3.47402 32.176979 -2.871232
2007-02-16 08:55:15 51°9.153 2°35.987 7.816 3.473399 32.174124 -2.871232
2007-02-16 08:55:20 51°9.159 2°35.996 7.8115 3.472985 32.171632 -2.871232
2007-02-16 08:55:25 51°9.165 2°36.005 7.8121 3.472985 32.171632 -2.871232
2007-02-16 08:55:30 51°9.171 2°36.014 7.8145 3.472571 32.167371 -2.871232
2007-02-16 08:55:35 51°9.177 2°36.023 7.8093 3.47226 32.165943 -2.871232
2007-02-16 08:55:40 51°9.184 2°36.032 7.8124 3.471846 32.162567 -2.871232
2007-02-16 08:55:45 51°9.19 2°36.042 7.8068 3.471225 32.15706 -2.871232
2007-02-16 08:55:50 51°9.197 2°36.051 7.8132 3.470914 32.154748 -2.871232
2007-02-16 08:55:55 51°9.204 2°36.06 7.81 3.470914 32.154748 -2.871232
2007-02-16 08:56:00 51°9.21 2°36.069 7.8137 3.470603 32.151552 -2.871232
2007-02-16 08:56:05 51°9.217 2°36.078 7.8105 3.470189 32.148175 -2.871232
2007-02-16 08:56:10 51°9.224 2°36.087 7.8141 3.469775 32.143915 -2.871232
2007-02-16 08:56:15 51°9.231 2°36.096 7.816 3.469464 32.140719 -2.871232
2007-02-16 08:56:20 51°9.237 2°36.105 7.8069 3.468946 32.136277 -2.871232
2007-02-16 08:56:25 51°9.244 2°36.114 7.8051 3.468946 32.136277 -2.871232
2007-02-16 08:56:30 51°9.25 2°36.123 7.8041 3.468429 32.130069 -2.871232
2007-02-16 08:56:35 51°9.255 2°36.132 7.8072 3.467704 32.122613 -2.871232
2007-02-16 08:56:40 51°9.261 2°36.141 7.8032 3.466979 32.114276 -2.871232
2007-02-16 08:56:45 51°9.266 2°36.149 7.8057 3.466565 32.110016 -2.871232
2007-02-16 08:56:50 51°9.27 2°36.158 7.8072 3.46615 32.106639 -2.871232
2007-02-16 08:56:55 51°9.275 2°36.166 7.7997 3.46615 32.106639 -2.871232
2007-02-16 08:57:00 51°9.279 2°36.174 7.8036 3.465633 32.10396 -2.871232
2007-02-16 08:57:05 51°9.283 2°36.182 7.8023 3.465115 32.098636 -2.871232
2007-02-16 08:57:10 51°9.287 2°36.189 7.7975 3.464908 32.09827 -2.871232
2007-02-16 08:57:15 51°9.291 2°36.196 7.7939 3.464701 32.09614 -2.871232
2007-02-16 08:57:20 51°9.295 2°36.203 7.7949 3.46439 32.092945 -2.871232
2007-02-16 08:57:25 51°9.299 2°36.209 7.7964 3.46439 32.092945 -2.871232
2007-02-16 08:57:30 51°9.303 2°36.215 7.7995 3.464183 32.093461 -2.871232
2007-02-16 08:57:35 51°9.307 2°36.221 7.7923 3.463976 32.092213 -2.871232
2007-02-16 08:57:40 51°9.31 2°36.226 7.7935 3.463665 32.091663 -2.871232
2007-02-16 08:57:45 51°9.314 2°36.231 7.7969 3.463354 32.08935 -2.871232
2007-02-16 08:57:50 51°9.316 2°36.235 7.7998 3.463044 32.087919 -2.871232
2007-02-16 08:57:55 51°9.318 2°36.239 7.7971 3.463044 32.087919 -2.871232
2007-02-16 08:58:00 51°9.321 2°36.242 7.7985 3.46263 32.08454 -2.871232
2007-02-16 08:58:05 51°9.322 2°36.245 7.7992 3.462319 32.082226 -2.871232
2007-02-16 08:58:10 51°9.324 2°36.247 7.79 3.462112 32.080977 -2.871232
2007-02-16 08:58:15 51°9.325 2°36.249 7.7914 3.461801 32.0769 -2.871232
2007-02-16 08:58:20 51°9.326 2°36.25 7.7876 3.461801 32.074255 -2.871232
2007-02-16 08:58:25 51°9.327 2°36.25 7.7931 3.461801 32.074255 -2.871232
2007-02-16 08:58:30 51°9.328 2°36.251 7.7897 3.461801 32.073373 -2.871232
2007-02-16 08:58:35 51°9.329 2°36.251 7.7861 3.461594 32.072124 -2.871232
2007-02-16 08:58:40 51°9.33 2°36.251 7.7883 3.461387 32.070876 -2.871232
2007-02-16 08:58:45 51°9.331 2°36.252 7.7892 3.461076 32.070325 -2.871232
2007-02-16 08:58:50 51°9.332 2°36.252 7.787 3.460766 32.070656 -2.871232
2007-02-16 08:58:55 51°9.333 2°36.252 7.7921 3.460766 32.070656 -2.871232
2007-02-16 08:59:00 51°9.334 2°36.253 7.7906 3.460455 32.06746 -2.871232
2007-02-16 08:59:05 51°9.335 2°36.253 7.7885 3.460352 32.067277 -2.871232
2007-02-16 08:59:10 51°9.337 2°36.254 7.7885 3.460041 32.064962 -2.871232
2007-02-16 08:59:15 51°9.338 2°36.254 7.7923 3.459937 32.063897 -2.871232
2007-02-16 08:59:20 51°9.339 2°36.254 7.7886 3.459937 32.063897 -2.871232
2007-02-16 08:59:25 51°9.34 2°36.255 7.789 3.459937 32.063897 -2.871232
2007-02-16 08:59:30 51°9.341 2°36.255 7.7902 3.45973 32.060885 -2.871232
2007-02-16 08:59:35 51°9.342 2°36.255 7.784 3.459627 32.059819 -2.871232
2007-02-16 08:59:40 51°9.343 2°36.256 7.7892 3.459523 32.059636 -2.871232
2007-02-16 08:59:45 51°9.344 2°36.256 7.79 3.45942 32.057689 -2.871232
2007-02-16 08:59:50 51°9.345 2°36.256 7.788 3.45942 32.056807 -2.871232
2007-02-16 08:59:54 51°9.346 2°36.257 7.7881 3.45942 32.056807 -2.871232
2007-02-16 09:00:00 51°9.348 2°36.257 7.786 3.45942 32.057689 -2.871232
2007-02-16 09:00:05 51°9.349 2°36.257 7.7892 3.45942 32.05857 -2.871232
2007-02-16 09:00:10 51°9.35 2°36.258 7.7918 3.459212 32.057321 -2.871232
2007-02-16 09:00:15 51°9.351 2°36.258 7.789 3.459109 32.056256 -2.871232
2007-02-16 09:00:20 51°9.352 2°36.258 7.7785 3.459109 32.056256 -2.871232
2007-02-16 09:00:25 51°9.353 2°36.259 7.7748 3.459109 32.056256 -2.871232
2007-02-16 09:00:30 51°9.354 2°36.259 7.7739 3.459005 32.054309 -2.871232
2007-02-16 09:00:35 51°9.355 2°36.26 7.7771 3.459109 32.055374 -2.871232
2007-02-16 09:00:40 51°9.356 2°36.26 7.7794 3.459212 32.053796 -2.871232
2007-02-16 09:00:45 51°9.358 2°36.261 7.7854 3.459419 32.052401 -2.871232
2007-02-16 09:00:50 51°9.359 2°36.261 7.791 3.459419 32.053282 -2.871232
2007-02-16 09:00:55 51°9.36 2°36.261 7.7886 3.459419 32.053282 -2.871232
2007-02-16 09:01:00 51°9.361 2°36.262 7.7944 3.459109 32.053612 -2.871232
2007-02-16 09:01:05 51°9.362 2°36.262 7.7926 3.458591 32.050048 -2.871232
2007-02-16 09:01:10 51°9.363 2°36.263 7.7958 3.45828 32.046852 -2.871232
2007-02-16 09:01:15 51°9.364 2°36.263 7.8022 3.457659 32.038699 -2.871232
2007-02-16 09:01:20 51°9.365 2°36.264 7.7957 3.456934 32.02772 -2.871232
2007-02-16 09:01:25 51°9.366 2°36.264 7.8024 3.456934 32.02772 -2.871232
2007-02-16 09:01:30 51°9.368 2°36.265 7.7967 3.456727 32.02383 -2.871232
2007-02-16 09:01:35 51°9.369 2°36.265 7.7953 3.456416 32.018874 -2.871232